Time,TemperatureF,DewpointF,PressureIn,WindDirection,WindDirectionDegrees,WindSpeedMPH,WindSpeedGustMPH,Humidity,HourlyPrecipIn,Conditions,Clouds,dailyrainin,SoftwareType,DateUTC
2013-02-20 00:00:00,62.1,56.2,29.95,East,95,15.0,18.0,81,0.00,,---,0.00,VWS V14.00,2013-02-20 06:00:00,
2013-02-20 00:01:00,62.0,56.1,29.96,East,91,16.0,18.0,81,0.00,,---,0.00,VWS V14.00,2013-02-20 06:01:00,
2013-02-20 00:02:00,62.0,56.1,29.95,East,94,18.0,19.0,81,0.00,,---,0.00,VWS V14.00,2013-02-20 06:02:00,
2013-02-20 00:03:00,62.1,56.5,29.95,East,86,12.0,18.0,82,0.00,,---,0.00,VWS V14.00,2013-02-20 06:03:00,
2013-02-20 00:04:00,62.1,56.2,29.95,East,91,13.0,19.0,81,0.00,,---,0.00,VWS V14.00,2013-02-20 06:04:00,
2013-02-20 00:05:00,62.2,56.3,29.95,East,87,12.0,14.0,81,0.00,,---,0.00,VWS V14.00,2013-02-20 06:05:00,
2013-02-20 00:06:00,62.2,56.3,29.95,East,86,10.0,15.0,81,0.00,,---,0.00,VWS V14.00,2013-02-20 06:06:00,
2013-02-20 00:07:00,62.2,56.3,29.95,East,88,13.0,20.0,81,0.00,,---,0.00,VWS V14.00,2013-02-20 06:07:00,
2013-02-20 00:08:00,62.2,56.3,29.95,East,88,15.0,18.0,81,0.00,,---,0.00,VWS V14.00,2013-02-20 06:08:00,
2013-02-20 00:09:00,62.2,56.3,29.95,East,88,11.0,16.0,81,0.00,,---,0.00,VWS V14.00,2013-02-20 06:09:00,
2013-02-20 00:10:00,62.2,56.3,29.95,East,88,12.0,15.0,81,0.00,,---,0.00,VWS V14.00,2013-02-20 06:10:00,
2013-02-20 00:11:00,62.2,56.3,29.95,East,91,14.0,20.0,81,0.00,,---,0.00,VWS V14.00,2013-02-20 06:11:00,
2013-02-20 00:12:00,62.2,56.3,29.95,East,83,13.0,18.0,81,0.00,,---,0.00,VWS V14.00,2013-02-20 06:12:00,
2013-02-20 00:13:00,62.2,56.3,29.96,East,98,15.0,16.0,81,0.00,,---,0.00,VWS V14.00,2013-02-20 06:13:00,
2013-02-20 00:14:00,62.2,56.3,29.95,ESE,102,9.0,15.0,81,0.00,,---,0.00,VWS V14.00,2013-02-20 06:14:00,
2013-02-20 00:15:00,62.3,56.4,29.96,East,85,13.0,19.0,81,0.00,,---,0.00,VWS V14.00,2013-02-20 06:15:00,
2013-02-20 00:16:00,62.2,56.3,29.95,East,94,12.0,16.0,81,0.00,,---,0.00,VWS V14.00,2013-02-20 06:16:00,
2013-02-20 00:17:00,62.3,56.4,29.95,East,92,14.0,20.0,81,0.00,,---,0.00,VWS V14.00,2013-02-20 06:17:00,
2013-02-20 00:18:00,62.3,56.4,29.96,East,96,12.0,19.0,81,0.00,,---,0.00,VWS V14.00,2013-02-20 06:18:00,
2013-02-20 00:19:00,62.4,56.5,29.96,East,97,13.0,16.0,81,0.00,,---,0.00,VWS V14.00,2013-02-20 06:19:00,
2013-02-20 00:20:00,62.3,56.4,29.97,East,97,13.0,15.0,81,0.00,,---,0.00,VWS V14.00,2013-02-20 06:20:00,
2013-02-20 00:21:00,62.3,56.4,29.96,East,93,13.0,13.0,81,0.00,,---,0.00,VWS V14.00,2013-02-20 06:21:00,
2013-02-20 00:22:00,62.3,56.4,29.96,ESE,103,12.0,20.0,81,0.00,,---,0.00,VWS V14.00,2013-02-20 06:22:00,
2013-02-20 00:23:00,62.3,56.4,29.97,East,98,9.0,15.0,81,0.00,,---,0.00,VWS V14.00,2013-02-20 06:23:00,
2013-02-20 00:24:00,62.4,56.5,29.97,East,92,11.0,13.0,81,0.00,,---,0.00,VWS V14.00,2013-02-20 06:24:00,
2013-02-20 00:25:00,62.3,56.4,29.97,East,94,12.0,13.0,81,0.00,,---,0.00,VWS V14.00,2013-02-20 06:25:00,
2013-02-20 00:26:00,62.4,56.5,29.97,East,90,11.0,12.0,81,0.00,,---,0.00,VWS V14.00,2013-02-20 06:26:00,
2013-02-20 00:27:00,62.3,56.4,29.97,East,97,9.0,11.0,81,0.00,,---,0.00,VWS V14.00,2013-02-20 06:27:00,
2013-02-20 00:28:00,62.3,56.4,29.97,East,94,13.0,15.0,81,0.00,,---,0.00,VWS V14.00,2013-02-20 06:28:00,
2013-02-20 00:29:00,62.3,56.4,29.97,East,94,12.0,15.0,81,0.00,,---,0.00,VWS V14.00,2013-02-20 06:29:00,
2013-02-20 00:30:00,62.4,56.5,29.97,East,94,8.0,11.0,81,0.00,,---,0.00,VWS V14.00,2013-02-20 06:30:00,
2013-02-20 00:31:00,62.4,56.5,29.97,East,94,14.0,15.0,81,0.00,,---,0.00,VWS V14.00,2013-02-20 06:31:00,
2013-02-20 00:32:00,62.4,56.5,29.97,East,93,11.0,14.0,81,0.00,,---,0.00,VWS V14.00,2013-02-20 06:32:00,
2013-02-20 00:33:00,62.3,56.4,29.97,East,93,8.0,12.0,81,0.00,,---,0.00,VWS V14.00,2013-02-20 06:33:00,
2013-02-20 00:34:00,62.3,56.4,29.97,East,94,12.0,16.0,81,0.00,,---,0.00,VWS V14.00,2013-02-20 06:34:00,
2013-02-20 00:35:00,62.4,56.5,29.97,East,96,15.0,15.0,81,0.00,,---,0.00,VWS V14.00,2013-02-20 06:35:00,
2013-02-20 00:36:00,62.3,56.4,29.97,East,96,13.0,13.0,81,0.00,,---,0.00,VWS V14.00,2013-02-20 06:36:00,
2013-02-20 00:37:00,62.3,56.4,29.97,East,86,12.0,18.0,81,0.00,,---,0.00,VWS V14.00,2013-02-20 06:37:00,
2013-02-20 00:38:00,62.3,56.4,29.97,East,95,13.0,15.0,81,0.00,,---,0.00,VWS V14.00,2013-02-20 06:38:00,
2013-02-20 00:39:00,62.3,56.4,29.97,East,94,14.0,16.0,81,0.00,,---,0.00,VWS V14.00,2013-02-20 06:39:00,
2013-02-20 00:40:00,62.5,56.6,29.97,East,100,11.0,13.0,81,0.00,,---,0.00,VWS V14.00,2013-02-20 06:40:00,
2013-02-20 00:41:00,62.5,56.6,29.97,East,100,11.0,15.0,81,0.00,,---,0.00,VWS V14.00,2013-02-20 06:41:00,
2013-02-20 00:42:00,62.5,56.6,29.97,East,99,13.0,15.0,81,0.00,,---,0.00,VWS V14.00,2013-02-20 06:42:00,
2013-02-20 00:43:00,62.4,56.5,29.97,East,81,10.0,13.0,81,0.00,,---,0.00,VWS V14.00,2013-02-20 06:43:00,
2013-02-20 00:44:00,62.4,56.5,29.97,East,97,12.0,13.0,81,0.00,,---,0.00,VWS V14.00,2013-02-20 06:44:00,
2013-02-20 00:45:00,62.4,56.5,29.97,East,99,13.0,14.0,81,0.00,,---,0.00,VWS V14.00,2013-02-20 06:45:00,
2013-02-20 00:46:00,62.4,56.5,29.97,East,97,11.0,13.0,81,0.00,,---,0.00,VWS V14.00,2013-02-20 06:46:00,
2013-02-20 00:47:00,62.4,56.5,29.97,East,101,13.0,15.0,81,0.00,,---,0.00,VWS V14.00,2013-02-20 06:47:00,
2013-02-20 00:48:00,62.4,56.5,29.97,East,97,8.0,14.0,81,0.00,,---,0.00,VWS V14.00,2013-02-20 06:48:00,
2013-02-20 00:49:00,62.3,56.4,29.97,East,95,8.0,11.0,81,0.00,,---,0.00,VWS V14.00,2013-02-20 06:49:00,
2013-02-20 00:50:00,62.3,56.4,29.97,East,101,11.0,12.0,81,0.00,,---,0.00,VWS V14.00,2013-02-20 06:50:00,
2013-02-20 00:51:00,62.3,56.4,29.97,East,99,11.0,15.0,81,0.00,,---,0.00,VWS V14.00,2013-02-20 06:51:00,
2013-02-20 00:52:00,62.3,56.4,29.97,East,99,11.0,11.0,81,0.00,,---,0.00,VWS V14.00,2013-02-20 06:52:00,
2013-02-20 00:53:00,62.2,56.3,29.97,ESE,109,11.0,12.0,81,0.00,,---,0.00,VWS V14.00,2013-02-20 06:53:00,
2013-02-20 00:54:00,62.2,56.3,29.97,East,100,8.0,11.0,81,0.00,,---,0.00,VWS V14.00,2013-02-20 06:54:00,
2013-02-20 00:55:00,62.0,56.1,29.97,East,98,9.0,9.0,81,0.00,,---,0.00,VWS V14.00,2013-02-20 06:55:00,
2013-02-20 00:56:00,62.1,56.2,29.97,East,100,11.0,11.0,81,0.00,,---,0.00,VWS V14.00,2013-02-20 06:56:00,
2013-02-20 00:57:00,62.0,56.1,29.97,East,99,7.0,11.0,81,0.00,,---,0.00,VWS V14.00,2013-02-20 06:57:00,
2013-02-20 00:58:00,62.0,56.1,29.97,East,94,9.0,11.0,81,0.00,,---,0.00,VWS V14.00,2013-02-20 06:58:00,
2013-02-20 00:59:00,62.0,56.1,29.97,East,97,9.0,11.0,81,0.00,,---,0.00,VWS V14.00,2013-02-20 06:59:00,
2013-02-20 01:00:00,62.0,56.1,29.97,ESE,103,8.0,9.0,81,0.00,,---,0.00,VWS V14.00,2013-02-20 07:00:00,
2013-02-20 01:01:00,62.0,56.5,29.97,East,98,8.0,12.0,82,0.00,,---,0.00,VWS V14.00,2013-02-20 07:01:00,
2013-02-20 01:02:00,62.0,56.5,29.97,ESE,103,9.0,11.0,82,0.00,,---,0.00,VWS V14.00,2013-02-20 07:02:00,
2013-02-20 01:03:00,62.0,56.1,29.97,ESE,103,9.0,9.0,81,0.00,,---,0.00,VWS V14.00,2013-02-20 07:03:00,
2013-02-20 01:04:00,61.9,56.0,29.97,ESE,103,8.0,9.0,81,0.00,,---,0.00,VWS V14.00,2013-02-20 07:04:00,
2013-02-20 01:05:00,61.8,56.2,29.96,East,98,8.0,11.0,82,0.00,,---,0.00,VWS V14.00,2013-02-20 07:05:00,
2013-02-20 01:06:00,61.8,56.2,29.97,East,101,7.0,11.0,82,0.00,,---,0.00,VWS V14.00,2013-02-20 07:06:00,
2013-02-20 01:07:00,61.8,56.2,29.96,East,101,9.0,12.0,82,0.00,,---,0.00,VWS V14.00,2013-02-20 07:07:00,
2013-02-20 01:08:00,61.8,56.2,29.97,East,98,11.0,11.0,82,0.00,,---,0.00,VWS V14.00,2013-02-20 07:08:00,
2013-02-20 01:09:00,61.8,56.2,29.97,ESE,105,11.0,13.0,82,0.00,,---,0.00,VWS V14.00,2013-02-20 07:09:00,
2013-02-20 01:10:00,61.9,56.3,29.97,ESE,103,7.0,8.0,82,0.00,,---,0.00,VWS V14.00,2013-02-20 07:10:00,
2013-02-20 01:11:00,61.8,56.2,29.97,ESE,103,9.0,11.0,82,0.00,,---,0.00,VWS V14.00,2013-02-20 07:11:00,
2013-02-20 01:12:00,61.9,56.3,29.97,ESE,103,6.0,9.0,82,0.00,,---,0.00,VWS V14.00,2013-02-20 07:12:00,
2013-02-20 01:13:00,61.9,56.3,29.97,ESE,103,5.0,8.0,82,0.00,,---,0.00,VWS V14.00,2013-02-20 07:13:00,
2013-02-20 01:14:00,61.9,56.3,29.97,East,101,6.0,8.0,82,0.00,,---,0.00,VWS V14.00,2013-02-20 07:14:00,
2013-02-20 01:15:00,61.8,56.2,29.98,East,99,7.0,8.0,82,0.00,,---,0.00,VWS V14.00,2013-02-20 07:15:00,
2013-02-20 01:16:00,61.8,56.2,29.97,East,100,8.0,8.0,82,0.00,,---,0.00,VWS V14.00,2013-02-20 07:16:00,
2013-02-20 01:17:00,61.8,56.2,29.98,East,99,5.0,9.0,82,0.00,,---,0.00,VWS V14.00,2013-02-20 07:17:00,
2013-02-20 01:18:00,61.8,56.2,29.97,East,99,7.0,8.0,82,0.00,,---,0.00,VWS V14.00,2013-02-20 07:18:00,
2013-02-20 01:19:00,61.8,56.2,29.98,East,99,5.0,8.0,82,0.00,,---,0.00,VWS V14.00,2013-02-20 07:19:00,
2013-02-20 01:20:00,61.7,56.2,29.97,ESE,102,6.0,11.0,82,0.00,,---,0.00,VWS V14.00,2013-02-20 07:20:00,
2013-02-20 01:21:00,61.7,56.2,29.98,East,99,7.0,9.0,82,0.00,,---,0.00,VWS V14.00,2013-02-20 07:21:00,
2013-02-20 01:22:00,61.7,56.2,29.98,ESE,105,9.0,9.0,82,0.00,,---,0.00,VWS V14.00,2013-02-20 07:22:00,
2013-02-20 01:23:00,61.8,56.2,29.97,ESE,102,7.0,11.0,82,0.00,,---,0.00,VWS V14.00,2013-02-20 07:23:00,
2013-02-20 01:24:00,61.8,56.2,29.97,ESE,102,5.0,8.0,82,0.00,,---,0.00,VWS V14.00,2013-02-20 07:24:00,
2013-02-20 01:25:00,61.7,56.2,29.96,East,101,7.0,9.0,82,0.00,,---,0.00,VWS V14.00,2013-02-20 07:25:00,
2013-02-20 01:26:00,61.7,56.2,29.97,East,101,8.0,11.0,82,0.00,,---,0.00,VWS V14.00,2013-02-20 07:26:00,
2013-02-20 01:27:00,61.7,56.2,29.97,East,101,8.0,11.0,82,0.00,,---,0.00,VWS V14.00,2013-02-20 07:27:00,
2013-02-20 01:28:00,61.7,56.2,29.96,East,101,9.0,9.0,82,0.00,,---,0.00,VWS V14.00,2013-02-20 07:28:00,
2013-02-20 01:29:00,61.7,56.2,29.96,East,98,9.0,11.0,82,0.00,,---,0.00,VWS V14.00,2013-02-20 07:29:00,
2013-02-20 01:30:00,61.8,56.2,29.96,ESE,105,8.0,13.0,82,0.00,,---,0.00,VWS V14.00,2013-02-20 07:30:00,
2013-02-20 01:31:00,61.8,56.2,29.96,East,98,8.0,9.0,82,0.00,,---,0.00,VWS V14.00,2013-02-20 07:31:00,
2013-02-20 01:32:00,61.8,56.2,29.96,East,98,13.0,13.0,82,0.00,,---,0.00,VWS V14.00,2013-02-20 07:32:00,
2013-02-20 01:33:00,61.9,56.3,29.96,East,101,8.0,13.0,82,0.00,,---,0.00,VWS V14.00,2013-02-20 07:33:00,
2013-02-20 01:34:00,61.9,56.3,29.96,East,100,8.0,9.0,82,0.00,,---,0.00,VWS V14.00,2013-02-20 07:34:00,
2013-02-20 01:35:00,62.0,56.5,29.97,East,98,8.0,9.0,82,0.00,,---,0.00,VWS V14.00,2013-02-20 07:35:00,
2013-02-20 01:36:00,61.9,56.3,29.96,East,100,6.0,8.0,82,0.00,,---,0.00,VWS V14.00,2013-02-20 07:36:00,
2013-02-20 01:37:00,62.0,56.5,29.97,East,100,7.0,8.0,82,0.00,,---,0.00,VWS V14.00,2013-02-20 07:37:00,
2013-02-20 01:38:00,61.9,56.3,29.97,East,98,6.0,9.0,82,0.00,,---,0.00,VWS V14.00,2013-02-20 07:38:00,
2013-02-20 01:39:00,61.9,56.3,29.97,East,98,7.0,7.0,82,0.00,,---,0.00,VWS V14.00,2013-02-20 07:39:00,
2013-02-20 01:40:00,62.1,56.5,29.97,East,98,7.0,8.0,82,0.00,,---,0.00,VWS V14.00,2013-02-20 07:40:00,
2013-02-20 01:41:00,62.0,56.5,29.97,East,98,9.0,9.0,82,0.00,,---,0.00,VWS V14.00,2013-02-20 07:41:00,
2013-02-20 01:42:00,62.1,56.5,29.97,East,98,6.0,9.0,82,0.00,,---,0.00,VWS V14.00,2013-02-20 07:42:00,
2013-02-20 01:43:00,62.0,56.5,29.97,East,98,6.0,8.0,82,0.00,,---,0.00,VWS V14.00,2013-02-20 07:43:00,
2013-02-20 01:44:00,62.1,56.5,29.97,East,97,7.0,9.0,82,0.00,,---,0.00,VWS V14.00,2013-02-20 07:44:00,
2013-02-20 01:45:00,62.1,56.5,29.96,East,97,7.0,8.0,82,0.00,,---,0.00,VWS V14.00,2013-02-20 07:45:00,
2013-02-20 01:46:00,62.1,56.5,29.96,East,98,8.0,11.0,82,0.00,,---,0.00,VWS V14.00,2013-02-20 07:46:00,
2013-02-20 01:47:00,62.1,56.5,29.96,East,97,8.0,9.0,82,0.00,,---,0.00,VWS V14.00,2013-02-20 07:47:00,
2013-02-20 01:48:00,62.1,56.5,29.96,East,97,7.0,8.0,82,0.00,,---,0.00,VWS V14.00,2013-02-20 07:48:00,
2013-02-20 01:49:00,62.1,56.5,29.96,East,97,7.0,8.0,82,0.00,,---,0.00,VWS V14.00,2013-02-20 07:49:00,
2013-02-20 01:50:00,62.0,56.5,29.96,East,98,7.0,7.0,82,0.00,,---,0.00,VWS V14.00,2013-02-20 07:50:00,
2013-02-20 01:51:00,62.0,56.5,29.96,East,99,8.0,9.0,82,0.00,,---,0.00,VWS V14.00,2013-02-20 07:51:00,
2013-02-20 01:52:00,62.0,56.5,29.96,East,98,6.0,8.0,82,0.00,,---,0.00,VWS V14.00,2013-02-20 07:52:00,
2013-02-20 01:53:00,62.0,56.5,29.96,East,94,7.0,12.0,82,0.00,,---,0.00,VWS V14.00,2013-02-20 07:53:00,
2013-02-20 01:54:00,62.0,56.5,29.96,East,94,8.0,9.0,82,0.00,,---,0.00,VWS V14.00,2013-02-20 07:54:00,
2013-02-20 01:55:00,62.2,56.6,29.96,East,94,6.0,7.0,82,0.00,,---,0.00,VWS V14.00,2013-02-20 07:55:00,
2013-02-20 01:56:00,62.1,56.5,29.96,East,94,7.0,11.0,82,0.00,,---,0.00,VWS V14.00,2013-02-20 07:56:00,
2013-02-20 01:57:00,62.1,56.5,29.96,East,94,7.0,8.0,82,0.00,,---,0.00,VWS V14.00,2013-02-20 07:57:00,
2013-02-20 01:58:00,62.2,56.7,29.96,East,95,8.0,8.0,82,0.00,,---,0.00,VWS V14.00,2013-02-20 07:58:00,
2013-02-20 01:59:00,62.2,56.7,29.97,East,94,7.0,9.0,82,0.00,,---,0.00,VWS V14.00,2013-02-20 07:59:00,
2013-02-20 02:00:00,62.4,56.8,29.96,East,96,9.0,9.0,82,0.00,,---,0.00,VWS V14.00,2013-02-20 08:00:00,
2013-02-20 02:01:00,62.4,57.2,29.97,East,98,7.0,8.0,83,0.00,,---,0.00,VWS V14.00,2013-02-20 08:01:00,
2013-02-20 02:02:00,62.4,56.8,29.96,East,96,9.0,9.0,82,0.00,,---,0.00,VWS V14.00,2013-02-20 08:02:00,
2013-02-20 02:03:00,62.5,56.9,29.96,East,95,7.0,11.0,82,0.00,,---,0.00,VWS V14.00,2013-02-20 08:03:00,
2013-02-20 02:04:00,62.5,56.9,29.96,East,95,9.0,9.0,82,0.00,,---,0.00,VWS V14.00,2013-02-20 08:04:00,
2013-02-20 02:05:00,62.7,57.1,29.96,East,90,11.0,12.0,82,0.00,,---,0.00,VWS V14.00,2013-02-20 08:05:00,
2013-02-20 02:06:00,62.6,57.0,29.96,East,96,6.0,8.0,82,0.00,,---,0.00,VWS V14.00,2013-02-20 08:06:00,
2013-02-20 02:07:00,62.7,57.1,29.96,East,89,8.0,12.0,82,0.00,,---,0.00,VWS V14.00,2013-02-20 08:07:00,
2013-02-20 02:08:00,62.8,57.2,29.96,East,93,7.0,12.0,82,0.00,,---,0.00,VWS V14.00,2013-02-20 08:08:00,
2013-02-20 02:09:00,62.9,57.3,29.96,East,92,8.0,11.0,82,0.00,,---,0.00,VWS V14.00,2013-02-20 08:09:00,
2013-02-20 02:10:00,63.0,57.4,29.96,East,89,7.0,11.0,82,0.00,,---,0.00,VWS V14.00,2013-02-20 08:10:00,
2013-02-20 02:11:00,62.9,57.3,29.96,East,91,8.0,11.0,82,0.00,,---,0.00,VWS V14.00,2013-02-20 08:11:00,
2013-02-20 02:12:00,63.0,57.4,29.96,East,90,11.0,11.0,82,0.00,,---,0.00,VWS V14.00,2013-02-20 08:12:00,
2013-02-20 02:13:00,63.0,57.4,29.96,East,88,7.0,11.0,82,0.00,,---,0.00,VWS V14.00,2013-02-20 08:13:00,
2013-02-20 02:14:00,63.1,57.5,29.96,East,88,7.0,8.0,82,0.00,,---,0.00,VWS V14.00,2013-02-20 08:14:00,
2013-02-20 02:15:00,63.1,57.5,29.96,East,92,8.0,11.0,82,0.00,,---,0.00,VWS V14.00,2013-02-20 08:15:00,
2013-02-20 02:16:00,63.1,57.5,29.96,East,88,8.0,8.0,82,0.00,,---,0.00,VWS V14.00,2013-02-20 08:16:00,
2013-02-20 02:17:00,63.1,57.5,29.96,East,89,8.0,11.0,82,0.00,,---,0.00,VWS V14.00,2013-02-20 08:17:00,
2013-02-20 02:18:00,63.2,57.6,29.96,East,91,11.0,11.0,82,0.00,,---,0.00,VWS V14.00,2013-02-20 08:18:00,
2013-02-20 02:19:00,63.2,57.6,29.96,East,92,8.0,12.0,82,0.00,,---,0.00,VWS V14.00,2013-02-20 08:19:00,
2013-02-20 02:20:00,63.4,57.8,29.96,East,93,8.0,9.0,82,0.00,,---,0.00,VWS V14.00,2013-02-20 08:20:00,
2013-02-20 02:21:00,63.4,57.8,29.96,East,90,7.0,11.0,82,0.00,,---,0.00,VWS V14.00,2013-02-20 08:21:00,
2013-02-20 02:22:00,63.4,57.8,29.96,East,92,7.0,9.0,82,0.00,,---,0.00,VWS V14.00,2013-02-20 08:22:00,
2013-02-20 02:23:00,63.4,57.8,29.96,East,93,7.0,9.0,82,0.00,,---,0.00,VWS V14.00,2013-02-20 08:23:00,
2013-02-20 02:24:00,63.5,57.9,29.97,East,93,5.0,8.0,82,0.00,,---,0.00,VWS V14.00,2013-02-20 08:24:00,
2013-02-20 02:25:00,63.5,57.9,29.97,East,93,0.0,0.0,82,0.00,,---,0.00,VWS V14.00,2013-02-20 08:25:00,
2013-02-20 02:26:00,63.5,57.9,29.97,East,93,6.0,6.0,82,0.00,,---,0.00,VWS V14.00,2013-02-20 08:26:00,
2013-02-20 02:27:00,63.5,57.9,29.97,East,93,0.0,6.0,82,0.00,,---,0.00,VWS V14.00,2013-02-20 08:27:00,
2013-02-20 02:28:00,63.5,57.9,29.97,East,93,5.0,7.0,82,0.00,,---,0.00,VWS V14.00,2013-02-20 08:28:00,
2013-02-20 02:29:00,63.5,57.9,29.97,East,93,4.0,6.0,82,0.00,,---,0.00,VWS V14.00,2013-02-20 08:29:00,
2013-02-20 02:30:00,63.6,57.7,29.97,East,93,4.0,5.0,81,0.00,,---,0.00,VWS V14.00,2013-02-20 08:30:00,
2013-02-20 02:31:00,63.6,58.0,29.97,East,92,2.0,6.0,82,0.00,,---,0.00,VWS V14.00,2013-02-20 08:31:00,
2013-02-20 02:32:00,63.6,57.7,29.97,East,93,5.0,5.0,81,0.00,,---,0.00,VWS V14.00,2013-02-20 08:32:00,
2013-02-20 02:33:00,63.6,57.7,29.97,East,93,4.0,5.0,81,0.00,,---,0.00,VWS V14.00,2013-02-20 08:33:00,
2013-02-20 02:34:00,63.5,57.6,29.98,East,93,4.0,5.0,81,0.00,,---,0.00,VWS V14.00,2013-02-20 08:34:00,
2013-02-20 02:35:00,63.5,57.9,29.98,East,93,0.0,0.0,82,0.00,,---,0.00,VWS V14.00,2013-02-20 08:35:00,
2013-02-20 02:36:00,63.5,57.6,29.98,East,93,0.0,0.0,81,0.00,,---,0.00,VWS V14.00,2013-02-20 08:36:00,
2013-02-20 02:37:00,63.5,57.6,29.98,East,92,0.0,0.0,81,0.00,,---,0.00,VWS V14.00,2013-02-20 08:37:00,
2013-02-20 02:38:00,63.6,57.7,29.98,East,93,0.0,0.0,81,0.00,,---,0.00,VWS V14.00,2013-02-20 08:38:00,
2013-02-20 02:39:00,63.6,57.7,29.98,East,93,0.0,0.0,81,0.00,,---,0.00,VWS V14.00,2013-02-20 08:39:00,
2013-02-20 02:40:00,63.6,58.0,29.98,East,92,4.0,5.0,82,0.00,,---,0.00,VWS V14.00,2013-02-20 08:40:00,
2013-02-20 02:41:00,63.6,57.7,29.98,East,92,6.0,6.0,81,0.00,,---,0.00,VWS V14.00,2013-02-20 08:41:00,
2013-02-20 02:42:00,63.6,57.7,29.98,East,92,4.0,6.0,81,0.00,,---,0.00,VWS V14.00,2013-02-20 08:42:00,
2013-02-20 02:43:00,63.6,58.0,29.98,East,92,5.0,5.0,82,0.00,,---,0.00,VWS V14.00,2013-02-20 08:43:00,
2013-02-20 02:44:00,63.6,57.7,29.98,East,92,5.0,5.0,81,0.00,,---,0.00,VWS V14.00,2013-02-20 08:44:00,
2013-02-20 02:45:00,63.6,57.7,29.97,East,88,5.0,5.0,81,0.00,,---,0.00,VWS V14.00,2013-02-20 08:45:00,
2013-02-20 02:46:00,63.6,57.7,29.97,East,88,4.0,7.0,81,0.00,,---,0.00,VWS V14.00,2013-02-20 08:46:00,
2013-02-20 02:47:00,63.6,57.7,29.97,East,88,5.0,5.0,81,0.00,,---,0.00,VWS V14.00,2013-02-20 08:47:00,
2013-02-20 02:48:00,63.6,57.7,29.97,East,88,6.0,6.0,81,0.00,,---,0.00,VWS V14.00,2013-02-20 08:48:00,
2013-02-20 02:49:00,63.6,57.7,29.97,East,88,6.0,6.0,81,0.00,,---,0.00,VWS V14.00,2013-02-20 08:49:00,
2013-02-20 02:50:00,63.5,57.6,29.97,East,88,5.0,6.0,81,0.00,,---,0.00,VWS V14.00,2013-02-20 08:50:00,
2013-02-20 02:51:00,63.6,57.7,29.97,East,88,6.0,6.0,81,0.00,,---,0.00,VWS V14.00,2013-02-20 08:51:00,
2013-02-20 02:52:00,63.6,57.7,29.97,East,88,4.0,6.0,81,0.00,,---,0.00,VWS V14.00,2013-02-20 08:52:00,
2013-02-20 02:53:00,63.5,57.6,29.97,East,88,6.0,6.0,81,0.00,,---,0.00,VWS V14.00,2013-02-20 08:53:00,
2013-02-20 02:54:00,63.5,57.9,29.97,East,88,6.0,7.0,82,0.00,,---,0.00,VWS V14.00,2013-02-20 08:54:00,
2013-02-20 02:55:00,63.6,58.0,29.97,East,88,5.0,6.0,82,0.00,,---,0.00,VWS V14.00,2013-02-20 08:55:00,
2013-02-20 02:56:00,63.6,58.0,29.97,East,88,5.0,7.0,82,0.00,,---,0.00,VWS V14.00,2013-02-20 08:56:00,
2013-02-20 02:57:00,63.6,58.0,29.97,East,88,6.0,7.0,82,0.00,,---,0.00,VWS V14.00,2013-02-20 08:57:00,
2013-02-20 02:58:00,63.6,58.0,29.97,East,88,4.0,6.0,82,0.00,,---,0.00,VWS V14.00,2013-02-20 08:58:00,
2013-02-20 02:59:00,63.6,58.0,29.97,East,88,6.0,6.0,82,0.00,,---,0.00,VWS V14.00,2013-02-20 08:59:00,
2013-02-20 03:00:00,63.7,58.1,29.97,East,88,6.0,7.0,82,0.00,,---,0.00,VWS V14.00,2013-02-20 09:00:00,
2013-02-20 03:01:00,63.6,58.0,29.97,East,88,5.0,7.0,82,0.00,,---,0.00,VWS V14.00,2013-02-20 09:01:00,
2013-02-20 03:02:00,63.7,58.1,29.97,East,88,6.0,6.0,82,0.00,,---,0.00,VWS V14.00,2013-02-20 09:02:00,
2013-02-20 03:03:00,63.7,58.1,29.97,East,88,5.0,7.0,82,0.00,,---,0.00,VWS V14.00,2013-02-20 09:03:00,
2013-02-20 03:04:00,63.7,58.1,29.96,East,88,5.0,7.0,82,0.00,,---,0.00,VWS V14.00,2013-02-20 09:04:00,
2013-02-20 03:05:00,63.8,58.2,29.97,ENE,75,6.0,7.0,82,0.00,,---,0.00,VWS V14.00,2013-02-20 09:05:00,
2013-02-20 03:06:00,63.7,58.1,29.97,East,85,5.0,8.0,82,0.00,,---,0.00,VWS V14.00,2013-02-20 09:06:00,
2013-02-20 03:07:00,63.8,58.2,29.97,ENE,75,7.0,11.0,82,0.00,,---,0.00,VWS V14.00,2013-02-20 09:07:00,
2013-02-20 03:08:00,63.8,58.2,29.97,ENE,75,5.0,7.0,82,0.00,,---,0.00,VWS V14.00,2013-02-20 09:08:00,
2013-02-20 03:09:00,63.8,58.2,29.97,ENE,75,6.0,7.0,82,0.00,,---,0.00,VWS V14.00,2013-02-20 09:09:00,
2013-02-20 03:10:00,63.3,57.4,29.97,ENE,75,5.0,7.0,81,0.00,,---,0.00,VWS V14.00,2013-02-20 09:10:00,
2013-02-20 03:11:00,63.6,57.7,29.97,ENE,75,5.0,7.0,81,0.00,,---,0.00,VWS V14.00,2013-02-20 09:11:00,
2013-02-20 03:12:00,63.4,57.5,29.97,ENE,75,6.0,7.0,81,0.00,,---,0.00,VWS V14.00,2013-02-20 09:12:00,
2013-02-20 03:13:00,63.3,57.4,29.97,ENE,75,5.0,7.0,81,0.00,,---,0.00,VWS V14.00,2013-02-20 09:13:00,
2013-02-20 03:14:00,63.1,57.2,29.97,ENE,75,7.0,8.0,81,0.00,,---,0.00,VWS V14.00,2013-02-20 09:14:00,
2013-02-20 03:15:00,62.7,56.8,29.96,ENE,70,7.0,8.0,81,0.00,,---,0.00,VWS V14.00,2013-02-20 09:15:00,
2013-02-20 03:16:00,62.9,57.0,29.96,ENE,71,7.0,10.0,81,0.00,,---,0.00,VWS V14.00,2013-02-20 09:16:00,
2013-02-20 03:17:00,62.8,56.9,29.96,ENE,71,7.0,8.0,81,0.00,,---,0.00,VWS V14.00,2013-02-20 09:17:00,
2013-02-20 03:18:00,62.7,56.8,29.96,ENE,60,10.0,10.0,81,0.00,,---,0.00,VWS V14.00,2013-02-20 09:18:00,
2013-02-20 03:19:00,62.6,56.7,29.96,ENE,57,10.0,11.0,81,0.00,,---,0.00,VWS V14.00,2013-02-20 09:19:00,
2013-02-20 03:20:00,62.1,56.5,29.96,NE,56,8.0,10.0,82,0.00,,---,0.00,VWS V14.00,2013-02-20 09:20:00,
2013-02-20 03:21:00,62.3,56.7,29.96,ENE,57,11.0,11.0,82,0.00,,---,0.00,VWS V14.00,2013-02-20 09:21:00,
2013-02-20 03:22:00,62.2,56.7,29.96,NE,56,10.0,11.0,82,0.00,,---,0.00,VWS V14.00,2013-02-20 09:22:00,
2013-02-20 03:23:00,62.1,56.5,29.96,NE,54,10.0,12.0,82,0.00,,---,0.00,VWS V14.00,2013-02-20 09:23:00,
2013-02-20 03:24:00,62.0,56.5,29.96,NE,52,10.0,12.0,82,0.00,,---,0.00,VWS V14.00,2013-02-20 09:24:00,
2013-02-20 03:25:00,61.8,56.6,29.96,NE,51,11.0,11.0,83,0.00,,---,0.00,VWS V14.00,2013-02-20 09:25:00,
2013-02-20 03:26:00,61.9,56.7,29.96,NE,51,8.0,11.0,83,0.00,,---,0.00,VWS V14.00,2013-02-20 09:26:00,
2013-02-20 03:27:00,61.8,56.6,29.96,NE,51,8.0,12.0,83,0.00,,---,0.00,VWS V14.00,2013-02-20 09:27:00,
2013-02-20 03:28:00,61.8,56.6,29.96,NE,51,10.0,12.0,83,0.00,,---,0.00,VWS V14.00,2013-02-20 09:28:00,
2013-02-20 03:29:00,61.8,56.6,29.96,NE,51,11.0,12.0,83,0.00,,---,0.00,VWS V14.00,2013-02-20 09:29:00,
2013-02-20 03:30:00,61.8,56.6,29.96,NE,51,11.0,11.0,83,0.00,,---,0.00,VWS V14.00,2013-02-20 09:30:00,
2013-02-20 03:31:00,61.8,56.6,29.96,NE,51,11.0,12.0,83,0.00,,---,0.00,VWS V14.00,2013-02-20 09:31:00,
2013-02-20 03:32:00,61.8,56.6,29.96,NE,51,10.0,13.0,83,0.00,,---,0.00,VWS V14.00,2013-02-20 09:32:00,
2013-02-20 03:33:00,61.8,56.9,29.96,NE,51,11.0,12.0,84,0.00,,---,0.00,VWS V14.00,2013-02-20 09:33:00,
2013-02-20 03:34:00,61.8,56.9,29.96,NE,51,10.0,12.0,84,0.00,,---,0.00,VWS V14.00,2013-02-20 09:34:00,
2013-02-20 03:35:00,61.7,56.8,29.96,NE,51,10.0,12.0,84,0.00,,---,0.00,VWS V14.00,2013-02-20 09:35:00,
2013-02-20 03:36:00,61.7,56.8,29.96,NE,51,10.0,11.0,84,0.00,,---,0.00,VWS V14.00,2013-02-20 09:36:00,
2013-02-20 03:37:00,61.7,56.8,29.96,NE,51,10.0,11.0,84,0.00,,---,0.00,VWS V14.00,2013-02-20 09:37:00,
2013-02-20 03:38:00,61.7,56.8,29.96,NE,51,11.0,12.0,84,0.00,,---,0.00,VWS V14.00,2013-02-20 09:38:00,
2013-02-20 03:39:00,61.6,56.7,29.95,NE,51,11.0,12.0,84,0.00,,---,0.00,VWS V14.00,2013-02-20 09:39:00,
2013-02-20 03:40:00,61.4,56.9,29.96,NE,51,10.0,11.0,85,0.00,,---,0.00,VWS V14.00,2013-02-20 09:40:00,
2013-02-20 03:41:00,61.5,56.6,29.96,NE,51,10.0,11.0,84,0.00,,---,0.00,VWS V14.00,2013-02-20 09:41:00,
2013-02-20 03:42:00,61.4,56.5,29.96,NE,51,10.0,11.0,84,0.00,,---,0.00,VWS V14.00,2013-02-20 09:42:00,
2013-02-20 03:43:00,61.4,56.5,29.96,NE,51,10.0,11.0,84,0.00,,---,0.00,VWS V14.00,2013-02-20 09:43:00,
2013-02-20 03:44:00,61.3,56.8,29.95,NE,51,8.0,12.0,85,0.00,,---,0.00,VWS V14.00,2013-02-20 09:44:00,
2013-02-20 03:45:00,61.3,56.8,29.95,NE,51,11.0,11.0,85,0.00,,---,0.00,VWS V14.00,2013-02-20 09:45:00,
2013-02-20 03:46:00,61.3,56.8,29.95,NE,51,11.0,12.0,85,0.00,,---,0.00,VWS V14.00,2013-02-20 09:46:00,
2013-02-20 03:47:00,61.3,56.8,29.95,NE,51,7.0,12.0,85,0.00,,---,0.00,VWS V14.00,2013-02-20 09:47:00,
2013-02-20 03:48:00,61.2,56.7,29.95,NE,51,8.0,11.0,85,0.00,,---,0.00,VWS V14.00,2013-02-20 09:48:00,
2013-02-20 03:49:00,61.2,56.7,29.95,NE,51,8.0,11.0,85,0.00,,---,0.00,VWS V14.00,2013-02-20 09:49:00,
2013-02-20 03:50:00,61.0,56.5,29.95,NE,51,12.0,12.0,85,0.00,,---,0.00,VWS V14.00,2013-02-20 09:50:00,
2013-02-20 03:51:00,61.1,56.6,29.95,NE,51,10.0,12.0,85,0.00,,---,0.00,VWS V14.00,2013-02-20 09:51:00,
2013-02-20 03:52:00,61.0,56.5,29.95,NE,51,12.0,13.0,85,0.00,,---,0.00,VWS V14.00,2013-02-20 09:52:00,
2013-02-20 03:53:00,61.0,56.5,29.95,NE,51,8.0,12.0,85,0.00,,---,0.00,VWS V14.00,2013-02-20 09:53:00,
2013-02-20 03:54:00,60.9,56.4,29.95,NE,51,10.0,12.0,85,0.00,,---,0.00,VWS V14.00,2013-02-20 09:54:00,
2013-02-20 03:55:00,60.8,56.3,29.95,NE,50,12.0,12.0,85,0.00,,---,0.00,VWS V14.00,2013-02-20 09:55:00,
2013-02-20 03:56:00,60.8,56.3,29.95,NE,51,12.0,12.0,85,0.00,,---,0.00,VWS V14.00,2013-02-20 09:56:00,
2013-02-20 03:57:00,60.8,56.3,29.95,NE,50,10.0,12.0,85,0.00,,---,0.00,VWS V14.00,2013-02-20 09:57:00,
2013-02-20 03:58:00,60.8,56.3,29.95,NE,50,8.0,12.0,85,0.00,,---,0.00,VWS V14.00,2013-02-20 09:58:00,
2013-02-20 03:59:00,60.7,56.2,29.95,NE,50,11.0,12.0,85,0.00,,---,0.00,VWS V14.00,2013-02-20 09:59:00,
2013-02-20 04:00:00,60.7,56.5,29.94,NE,51,13.0,14.0,86,0.00,,---,0.00,VWS V14.00,2013-02-20 10:00:00,
2013-02-20 04:01:00,60.7,56.5,29.95,NE,50,10.0,12.0,86,0.00,,---,0.00,VWS V14.00,2013-02-20 10:01:00,
2013-02-20 04:02:00,60.7,56.5,29.95,NE,51,11.0,12.0,86,0.00,,---,0.00,VWS V14.00,2013-02-20 10:02:00,
2013-02-20 04:03:00,60.7,56.5,29.94,NE,51,13.0,14.0,86,0.00,,---,0.00,VWS V14.00,2013-02-20 10:03:00,
2013-02-20 04:04:00,60.7,56.5,29.94,NE,53,11.0,13.0,86,0.00,,---,0.00,VWS V14.00,2013-02-20 10:04:00,
2013-02-20 04:05:00,60.8,56.6,29.94,NE,53,8.0,12.0,86,0.00,,---,0.00,VWS V14.00,2013-02-20 10:05:00,
2013-02-20 04:06:00,60.8,56.6,29.94,NE,53,12.0,13.0,86,0.00,,---,0.00,VWS V14.00,2013-02-20 10:06:00,
2013-02-20 04:07:00,60.8,56.6,29.94,NE,53,10.0,13.0,86,0.00,,---,0.00,VWS V14.00,2013-02-20 10:07:00,
2013-02-20 04:08:00,60.8,56.6,29.94,NE,53,13.0,13.0,86,0.00,,---,0.00,VWS V14.00,2013-02-20 10:08:00,
2013-02-20 04:09:00,60.8,56.6,29.95,NE,53,11.0,12.0,86,0.00,,---,0.00,VWS V14.00,2013-02-20 10:09:00,
2013-02-20 04:10:00,60.8,56.3,29.95,NE,54,12.0,13.0,85,0.00,,---,0.00,VWS V14.00,2013-02-20 10:10:00,
2013-02-20 04:11:00,60.8,56.3,29.95,NE,54,13.0,14.0,85,0.00,,---,0.00,VWS V14.00,2013-02-20 10:11:00,
2013-02-20 04:12:00,60.8,56.3,29.95,NE,53,10.0,13.0,85,0.00,,---,0.00,VWS V14.00,2013-02-20 10:12:00,
2013-02-20 04:13:00,60.8,56.3,29.95,NE,53,12.0,14.0,85,0.00,,---,0.00,VWS V14.00,2013-02-20 10:13:00,
2013-02-20 04:14:00,60.8,56.3,29.95,NE,53,12.0,13.0,85,0.00,,---,0.00,VWS V14.00,2013-02-20 10:14:00,
2013-02-20 04:15:00,60.8,56.3,29.94,NE,52,11.0,12.0,85,0.00,,---,0.00,VWS V14.00,2013-02-20 10:15:00,
2013-02-20 04:16:00,60.8,56.3,29.94,NE,53,13.0,13.0,85,0.00,,---,0.00,VWS V14.00,2013-02-20 10:16:00,
2013-02-20 04:17:00,60.8,56.3,29.94,NE,52,13.0,13.0,85,0.00,,---,0.00,VWS V14.00,2013-02-20 10:17:00,
2013-02-20 04:18:00,60.8,56.3,29.94,NE,50,10.0,14.0,85,0.00,,---,0.00,VWS V14.00,2013-02-20 10:18:00,
2013-02-20 04:19:00,60.8,56.3,29.94,NE,50,11.0,13.0,85,0.00,,---,0.00,VWS V14.00,2013-02-20 10:19:00,
2013-02-20 04:20:00,60.8,56.3,29.94,NE,50,10.0,13.0,85,0.00,,---,0.00,VWS V14.00,2013-02-20 10:20:00,
2013-02-20 04:21:00,60.8,56.3,29.94,NE,49,12.0,14.0,85,0.00,,---,0.00,VWS V14.00,2013-02-20 10:21:00,
2013-02-20 04:22:00,60.8,56.3,29.94,NE,50,12.0,14.0,85,0.00,,---,0.00,VWS V14.00,2013-02-20 10:22:00,
2013-02-20 04:23:00,60.8,56.3,29.94,NE,49,14.0,14.0,85,0.00,,---,0.00,VWS V14.00,2013-02-20 10:23:00,
2013-02-20 04:24:00,60.8,56.3,29.94,NE,49,12.0,14.0,85,0.00,,---,0.00,VWS V14.00,2013-02-20 10:24:00,
2013-02-20 04:25:00,60.7,56.2,29.94,NE,49,12.0,14.0,85,0.00,,---,0.00,VWS V14.00,2013-02-20 10:25:00,
2013-02-20 04:26:00,60.7,56.2,29.94,NE,49,12.0,14.0,85,0.00,,---,0.00,VWS V14.00,2013-02-20 10:26:00,
2013-02-20 04:27:00,60.7,56.2,29.94,NE,49,13.0,14.0,85,0.00,,---,0.00,VWS V14.00,2013-02-20 10:27:00,
2013-02-20 04:28:00,60.7,56.2,29.94,NE,50,11.0,14.0,85,0.00,,---,0.00,VWS V14.00,2013-02-20 10:28:00,
2013-02-20 04:29:00,60.7,56.2,29.93,NE,50,12.0,15.0,85,0.00,,---,0.00,VWS V14.00,2013-02-20 10:29:00,
2013-02-20 04:30:00,60.7,56.2,29.93,NE,53,12.0,13.0,85,0.00,,---,0.00,VWS V14.00,2013-02-20 10:30:00,
2013-02-20 04:31:00,60.7,56.2,29.93,NE,52,11.0,14.0,85,0.00,,---,0.00,VWS V14.00,2013-02-20 10:31:00,
2013-02-20 04:32:00,60.7,56.2,29.93,NE,53,10.0,13.0,85,0.00,,---,0.00,VWS V14.00,2013-02-20 10:32:00,
2013-02-20 04:33:00,60.6,56.1,29.93,NE,51,13.0,14.0,85,0.00,,---,0.00,VWS V14.00,2013-02-20 10:33:00,
2013-02-20 04:34:00,60.6,56.1,29.93,NE,51,13.0,14.0,85,0.00,,---,0.00,VWS V14.00,2013-02-20 10:34:00,
2013-02-20 04:35:00,60.5,56.0,29.93,NE,49,13.0,13.0,85,0.00,,---,0.00,VWS V14.00,2013-02-20 10:35:00,
2013-02-20 04:36:00,60.5,56.0,29.93,NE,52,13.0,14.0,85,0.00,,---,0.00,VWS V14.00,2013-02-20 10:36:00,
2013-02-20 04:37:00,60.5,56.0,29.93,NE,49,13.0,14.0,85,0.00,,---,0.00,VWS V14.00,2013-02-20 10:37:00,
2013-02-20 04:38:00,60.5,56.0,29.93,NE,49,13.0,13.0,85,0.00,,---,0.00,VWS V14.00,2013-02-20 10:38:00,
2013-02-20 04:39:00,60.5,56.0,29.93,NE,49,14.0,14.0,85,0.00,,---,0.00,VWS V14.00,2013-02-20 10:39:00,
2013-02-20 04:40:00,60.5,56.0,29.94,NE,51,12.0,13.0,85,0.00,,---,0.00,VWS V14.00,2013-02-20 10:40:00,
2013-02-20 04:41:00,60.5,56.0,29.93,NE,53,14.0,15.0,85,0.00,,---,0.00,VWS V14.00,2013-02-20 10:41:00,
2013-02-20 04:42:00,60.5,56.0,29.93,NE,53,13.0,16.0,85,0.00,,---,0.00,VWS V14.00,2013-02-20 10:42:00,
2013-02-20 04:43:00,60.5,56.0,29.94,NE,51,12.0,16.0,85,0.00,,---,0.00,VWS V14.00,2013-02-20 10:43:00,
2013-02-20 04:44:00,60.5,56.0,29.94,NE,51,12.0,14.0,85,0.00,,---,0.00,VWS V14.00,2013-02-20 10:44:00,
2013-02-20 04:45:00,60.6,56.1,29.94,NE,51,12.0,14.0,85,0.00,,---,0.00,VWS V14.00,2013-02-20 10:45:00,
2013-02-20 04:46:00,60.5,56.0,29.94,NE,51,12.0,14.0,85,0.00,,---,0.00,VWS V14.00,2013-02-20 10:46:00,
2013-02-20 04:47:00,60.6,56.1,29.94,NE,51,12.0,15.0,85,0.00,,---,0.00,VWS V14.00,2013-02-20 10:47:00,
2013-02-20 04:48:00,60.6,56.1,29.94,NE,52,11.0,14.0,85,0.00,,---,0.00,VWS V14.00,2013-02-20 10:48:00,
2013-02-20 04:49:00,60.6,56.1,29.94,NE,53,11.0,12.0,85,0.00,,---,0.00,VWS V14.00,2013-02-20 10:49:00,
2013-02-20 04:50:00,60.7,56.2,29.93,NE,55,12.0,13.0,85,0.00,,---,0.00,VWS V14.00,2013-02-20 10:50:00,
2013-02-20 04:51:00,60.6,56.1,29.93,NE,53,11.0,14.0,85,0.00,,---,0.00,VWS V14.00,2013-02-20 10:51:00,
2013-02-20 04:52:00,60.6,56.1,29.93,NE,55,12.0,13.0,85,0.00,,---,0.00,VWS V14.00,2013-02-20 10:52:00,
2013-02-20 04:53:00,60.7,56.2,29.93,ENE,57,12.0,16.0,85,0.00,,---,0.00,VWS V14.00,2013-02-20 10:53:00,
2013-02-20 04:54:00,60.7,56.2,29.93,ENE,58,11.0,14.0,85,0.00,,---,0.00,VWS V14.00,2013-02-20 10:54:00,
2013-02-20 04:55:00,60.8,56.6,29.93,ENE,57,13.0,13.0,86,0.00,,---,0.00,VWS V14.00,2013-02-20 10:55:00,
2013-02-20 04:56:00,60.8,56.3,29.93,NE,56,15.0,15.0,85,0.00,,---,0.00,VWS V14.00,2013-02-20 10:56:00,
2013-02-20 04:57:00,60.8,56.3,29.93,ENE,57,11.0,15.0,85,0.00,,---,0.00,VWS V14.00,2013-02-20 10:57:00,
2013-02-20 04:58:00,60.9,56.7,29.93,ENE,58,12.0,15.0,86,0.00,,---,0.00,VWS V14.00,2013-02-20 10:58:00,
2013-02-20 04:59:00,60.9,56.4,29.93,NE,55,13.0,15.0,85,0.00,,---,0.00,VWS V14.00,2013-02-20 10:59:00,
2013-02-20 05:00:00,61.0,56.8,29.93,ENE,59,13.0,14.0,86,0.00,,---,0.00,VWS V14.00,2013-02-20 11:00:00,
2013-02-20 05:01:00,60.9,56.4,29.93,ENE,59,16.0,16.0,85,0.00,,---,0.00,VWS V14.00,2013-02-20 11:01:00,
2013-02-20 05:02:00,60.9,56.7,29.93,ENE,59,14.0,16.0,86,0.00,,---,0.00,VWS V14.00,2013-02-20 11:02:00,
2013-02-20 05:03:00,61.0,56.8,29.93,ENE,59,12.0,14.0,86,0.00,,---,0.00,VWS V14.00,2013-02-20 11:03:00,
2013-02-20 05:04:00,61.0,56.8,29.93,ENE,60,15.0,16.0,86,0.00,,---,0.00,VWS V14.00,2013-02-20 11:04:00,
2013-02-20 05:05:00,61.1,56.6,29.93,ENE,59,13.0,13.0,85,0.00,,---,0.00,VWS V14.00,2013-02-20 11:05:00,
2013-02-20 05:06:00,61.0,56.8,29.93,ENE,59,13.0,15.0,86,0.00,,---,0.00,VWS V14.00,2013-02-20 11:06:00,
2013-02-20 05:07:00,61.1,56.6,29.93,ENE,60,11.0,16.0,85,0.00,,---,0.00,VWS V14.00,2013-02-20 11:07:00,
2013-02-20 05:08:00,61.1,56.6,29.93,ENE,58,12.0,14.0,85,0.00,,---,0.00,VWS V14.00,2013-02-20 11:08:00,
2013-02-20 05:09:00,61.1,56.6,29.93,ENE,57,12.0,15.0,85,0.00,,---,0.00,VWS V14.00,2013-02-20 11:09:00,
2013-02-20 05:10:00,61.2,57.0,29.92,ENE,61,14.0,15.0,86,0.00,,---,0.00,VWS V14.00,2013-02-20 11:10:00,
2013-02-20 05:11:00,61.1,56.9,29.92,ENE,59,11.0,16.0,86,0.00,,---,0.00,VWS V14.00,2013-02-20 11:11:00,
2013-02-20 05:12:00,61.2,57.0,29.92,ENE,61,12.0,15.0,86,0.00,,---,0.00,VWS V14.00,2013-02-20 11:12:00,
2013-02-20 05:13:00,61.2,57.0,29.92,ENE,63,15.0,15.0,86,0.00,,---,0.00,VWS V14.00,2013-02-20 11:13:00,
2013-02-20 05:14:00,61.3,56.8,29.92,ENE,63,13.0,15.0,85,0.00,,---,0.00,VWS V14.00,2013-02-20 11:14:00,
2013-02-20 05:15:00,61.3,56.8,29.92,ENE,65,12.0,15.0,85,0.00,,---,0.00,VWS V14.00,2013-02-20 11:15:00,
2013-02-20 05:16:00,61.3,56.8,29.92,ENE,63,12.0,17.0,85,0.00,,---,0.00,VWS V14.00,2013-02-20 11:16:00,
2013-02-20 05:17:00,61.3,56.8,29.92,ENE,64,15.0,15.0,85,0.00,,---,0.00,VWS V14.00,2013-02-20 11:17:00,
2013-02-20 05:18:00,61.3,56.8,29.92,ENE,65,12.0,15.0,85,0.00,,---,0.00,VWS V14.00,2013-02-20 11:18:00,
2013-02-20 05:19:00,61.3,56.8,29.92,ENE,65,14.0,14.0,85,0.00,,---,0.00,VWS V14.00,2013-02-20 11:19:00,
2013-02-20 05:20:00,61.4,56.9,29.92,ENE,66,12.0,13.0,85,0.00,,---,0.00,VWS V14.00,2013-02-20 11:20:00,
2013-02-20 05:21:00,61.4,56.9,29.92,ENE,64,12.0,15.0,85,0.00,,---,0.00,VWS V14.00,2013-02-20 11:21:00,
2013-02-20 05:22:00,61.4,56.9,29.92,ENE,66,13.0,15.0,85,0.00,,---,0.00,VWS V14.00,2013-02-20 11:22:00,
2013-02-20 05:23:00,61.5,57.0,29.92,ENE,66,14.0,14.0,85,0.00,,---,0.00,VWS V14.00,2013-02-20 11:23:00,
2013-02-20 05:24:00,61.5,57.0,29.92,ENE,64,13.0,17.0,85,0.00,,---,0.00,VWS V14.00,2013-02-20 11:24:00,
2013-02-20 05:25:00,61.6,57.4,29.92,ENE,62,14.0,14.0,86,0.00,,---,0.00,VWS V14.00,2013-02-20 11:25:00,
2013-02-20 05:26:00,61.6,57.0,29.92,ENE,66,13.0,15.0,85,0.00,,---,0.00,VWS V14.00,2013-02-20 11:26:00,
2013-02-20 05:27:00,61.6,57.0,29.92,ENE,63,13.0,14.0,85,0.00,,---,0.00,VWS V14.00,2013-02-20 11:27:00,
2013-02-20 05:28:00,61.7,57.5,29.92,ENE,63,12.0,15.0,86,0.00,,---,0.00,VWS V14.00,2013-02-20 11:28:00,
2013-02-20 05:29:00,61.7,57.5,29.92,ENE,66,12.0,17.0,86,0.00,,---,0.00,VWS V14.00,2013-02-20 11:29:00,
2013-02-20 05:30:00,61.7,57.2,29.92,ENE,67,14.0,15.0,85,0.00,,---,0.00,VWS V14.00,2013-02-20 11:30:00,
2013-02-20 05:31:00,61.7,57.2,29.92,ENE,67,12.0,14.0,85,0.00,,---,0.00,VWS V14.00,2013-02-20 11:31:00,
2013-02-20 05:32:00,61.7,57.2,29.92,ENE,68,11.0,15.0,85,0.00,,---,0.00,VWS V14.00,2013-02-20 11:32:00,
2013-02-20 05:33:00,61.7,57.2,29.92,ENE,67,12.0,15.0,85,0.00,,---,0.00,VWS V14.00,2013-02-20 11:33:00,
2013-02-20 05:34:00,61.6,57.0,29.92,ENE,68,15.0,15.0,85,0.00,,---,0.00,VWS V14.00,2013-02-20 11:34:00,
2013-02-20 05:35:00,61.6,57.0,29.91,ENE,67,12.0,13.0,85,0.00,,---,0.00,VWS V14.00,2013-02-20 11:35:00,
2013-02-20 05:36:00,61.7,57.2,29.92,ENE,65,13.0,15.0,85,0.00,,---,0.00,VWS V14.00,2013-02-20 11:36:00,
2013-02-20 05:37:00,61.6,57.0,29.91,ENE,66,11.0,15.0,85,0.00,,---,0.00,VWS V14.00,2013-02-20 11:37:00,
2013-02-20 05:38:00,61.6,57.0,29.91,ENE,67,11.0,14.0,85,0.00,,---,0.00,VWS V14.00,2013-02-20 11:38:00,
2013-02-20 05:39:00,61.6,57.0,29.91,ENE,66,12.0,14.0,85,0.00,,---,0.00,VWS V14.00,2013-02-20 11:39:00,
2013-02-20 05:40:00,61.6,57.0,29.91,ENE,64,12.0,12.0,85,0.00,,---,0.00,VWS V14.00,2013-02-20 11:40:00,
2013-02-20 05:41:00,61.6,57.0,29.91,ENE,63,10.0,15.0,85,0.00,,---,0.00,VWS V14.00,2013-02-20 11:41:00,
2013-02-20 05:42:00,61.6,57.0,29.91,ENE,64,12.0,12.0,85,0.00,,---,0.00,VWS V14.00,2013-02-20 11:42:00,
2013-02-20 05:43:00,61.6,57.0,29.91,ENE,67,11.0,13.0,85,0.00,,---,0.00,VWS V14.00,2013-02-20 11:43:00,
2013-02-20 05:44:00,61.7,57.5,29.91,ENE,67,13.0,13.0,86,0.00,,---,0.00,VWS V14.00,2013-02-20 11:44:00,
2013-02-20 05:45:00,61.8,57.6,29.90,ENE,70,14.0,14.0,86,0.00,,---,0.00,VWS V14.00,2013-02-20 11:45:00,
2013-02-20 05:46:00,61.8,57.6,29.91,ENE,69,13.0,15.0,86,0.00,,---,0.00,VWS V14.00,2013-02-20 11:46:00,
2013-02-20 05:47:00,61.8,57.6,29.91,ENE,70,12.0,15.0,86,0.00,,---,0.00,VWS V14.00,2013-02-20 11:47:00,
2013-02-20 05:48:00,61.8,57.6,29.90,ENE,69,13.0,17.0,86,0.00,,---,0.00,VWS V14.00,2013-02-20 11:48:00,
2013-02-20 05:49:00,61.9,57.7,29.90,ENE,70,12.0,15.0,86,0.00,,---,0.00,VWS V14.00,2013-02-20 11:49:00,
2013-02-20 05:50:00,62.0,57.8,29.90,ENE,71,11.0,13.0,86,0.00,,---,0.00,VWS V14.00,2013-02-20 11:50:00,
2013-02-20 05:51:00,61.9,57.7,29.90,ENE,71,13.0,17.0,86,0.00,,---,0.00,VWS V14.00,2013-02-20 11:51:00,
2013-02-20 05:52:00,61.9,57.7,29.90,ENE,69,11.0,15.0,86,0.00,,---,0.00,VWS V14.00,2013-02-20 11:52:00,
2013-02-20 05:53:00,62.0,57.8,29.90,ENE,72,14.0,14.0,86,0.00,,---,0.00,VWS V14.00,2013-02-20 11:53:00,
2013-02-20 05:54:00,62.0,57.8,29.90,ENE,73,10.0,14.0,86,0.00,,---,0.00,VWS V14.00,2013-02-20 11:54:00,
2013-02-20 05:55:00,62.2,58.0,29.90,ENE,74,10.0,12.0,86,0.00,,---,0.00,VWS V14.00,2013-02-20 11:55:00,
2013-02-20 05:56:00,62.1,57.9,29.90,ENE,74,10.0,13.0,86,0.00,,---,0.00,VWS V14.00,2013-02-20 11:56:00,
2013-02-20 05:57:00,62.1,57.9,29.90,ENE,74,11.0,12.0,86,0.00,,---,0.00,VWS V14.00,2013-02-20 11:57:00,
2013-02-20 05:58:00,62.2,58.0,29.90,ENE,74,11.0,12.0,86,0.00,,---,0.00,VWS V14.00,2013-02-20 11:58:00,
2013-02-20 05:59:00,62.2,58.0,29.90,ENE,74,11.0,12.0,86,0.00,,---,0.00,VWS V14.00,2013-02-20 11:59:00,
2013-02-20 06:00:00,62.4,58.2,29.90,ENE,73,11.0,12.0,86,0.00,,---,0.00,VWS V14.00,2013-02-20 12:00:00,
2013-02-20 06:01:00,62.3,58.1,29.90,ENE,74,12.0,14.0,86,0.00,,---,0.00,VWS V14.00,2013-02-20 12:01:00,
2013-02-20 06:02:00,62.3,58.1,29.90,ENE,74,11.0,12.0,86,0.00,,---,0.00,VWS V14.00,2013-02-20 12:02:00,
2013-02-20 06:03:00,62.4,58.2,29.90,ENE,74,8.0,12.0,86,0.00,,---,0.00,VWS V14.00,2013-02-20 12:03:00,
2013-02-20 06:04:00,62.4,58.2,29.90,ENE,74,10.0,12.0,86,0.00,,---,0.00,VWS V14.00,2013-02-20 12:04:00,
2013-02-20 06:05:00,62.6,58.4,29.90,ENE,73,11.0,12.0,86,0.00,,---,0.00,VWS V14.00,2013-02-20 12:05:00,
2013-02-20 06:06:00,62.5,58.3,29.90,ENE,73,10.0,12.0,86,0.00,,---,0.00,VWS V14.00,2013-02-20 12:06:00,
2013-02-20 06:07:00,62.6,58.4,29.90,ENE,73,11.0,12.0,86,0.00,,---,0.00,VWS V14.00,2013-02-20 12:07:00,
2013-02-20 06:08:00,62.6,58.4,29.90,ENE,73,10.0,12.0,86,0.00,,---,0.00,VWS V14.00,2013-02-20 12:08:00,
2013-02-20 06:09:00,62.6,58.4,29.90,ENE,73,11.0,13.0,86,0.00,,---,0.00,VWS V14.00,2013-02-20 12:09:00,
2013-02-20 06:10:00,62.7,58.5,29.89,ENE,72,10.0,11.0,86,0.00,,---,0.00,VWS V14.00,2013-02-20 12:10:00,
2013-02-20 06:11:00,62.6,58.4,29.89,ENE,72,11.0,12.0,86,0.00,,---,0.00,VWS V14.00,2013-02-20 12:11:00,
2013-02-20 06:12:00,62.7,58.5,29.89,ENE,72,8.0,13.0,86,0.00,,---,0.00,VWS V14.00,2013-02-20 12:12:00,
2013-02-20 06:13:00,62.7,58.5,29.89,ENE,72,7.0,11.0,86,0.00,,---,0.00,VWS V14.00,2013-02-20 12:13:00,
2013-02-20 06:14:00,62.7,58.5,29.90,ENE,72,10.0,10.0,86,0.00,,---,0.00,VWS V14.00,2013-02-20 12:14:00,
2013-02-20 06:15:00,62.8,58.6,29.90,ENE,72,8.0,10.0,86,0.00,,---,0.00,VWS V14.00,2013-02-20 12:15:00,
2013-02-20 06:16:00,62.7,58.5,29.90,ENE,72,8.0,10.0,86,0.00,,---,0.00,VWS V14.00,2013-02-20 12:16:00,
2013-02-20 06:17:00,62.8,58.6,29.90,ENE,72,8.0,10.0,86,0.00,,---,0.00,VWS V14.00,2013-02-20 12:17:00,
2013-02-20 06:18:00,62.8,58.6,29.90,ENE,72,7.0,10.0,86,0.00,,---,0.00,VWS V14.00,2013-02-20 12:18:00,
2013-02-20 06:19:00,62.8,58.6,29.90,ENE,72,8.0,10.0,86,0.00,,---,0.00,VWS V14.00,2013-02-20 12:19:00,
2013-02-20 06:20:00,62.9,58.7,29.90,ENE,72,8.0,8.0,86,0.00,,---,0.00,VWS V14.00,2013-02-20 12:20:00,
2013-02-20 06:21:00,62.9,58.7,29.90,ENE,72,6.0,8.0,86,0.00,,---,0.00,VWS V14.00,2013-02-20 12:21:00,
2013-02-20 06:22:00,62.9,58.7,29.90,ENE,72,7.0,11.0,86,0.00,,---,0.00,VWS V14.00,2013-02-20 12:22:00,
2013-02-20 06:23:00,63.0,58.8,29.90,ENE,72,10.0,10.0,86,0.00,,---,0.00,VWS V14.00,2013-02-20 12:23:00,
2013-02-20 06:24:00,63.1,58.8,29.90,ENE,72,8.0,10.0,86,0.00,,---,0.00,VWS V14.00,2013-02-20 12:24:00,
2013-02-20 06:25:00,63.3,59.4,29.90,ENE,72,7.0,11.0,87,0.00,,---,0.00,VWS V14.00,2013-02-20 12:25:00,
2013-02-20 06:26:00,63.2,59.0,29.90,ENE,72,11.0,12.0,86,0.00,,---,0.00,VWS V14.00,2013-02-20 12:26:00,
2013-02-20 06:27:00,63.3,59.4,29.89,ENE,72,10.0,11.0,87,0.00,,---,0.00,VWS V14.00,2013-02-20 12:27:00,
2013-02-20 06:28:00,63.4,59.5,29.90,ENE,72,10.0,11.0,87,0.00,,---,0.00,VWS V14.00,2013-02-20 12:28:00,
2013-02-20 06:29:00,63.4,59.5,29.90,ENE,72,8.0,10.0,87,0.00,,---,0.00,VWS V14.00,2013-02-20 12:29:00,
2013-02-20 06:30:00,64.0,60.1,29.90,ENE,74,8.0,11.0,87,0.00,,---,0.00,VWS V14.00,2013-02-20 12:30:00,
2013-02-20 06:31:00,63.8,59.9,29.90,ENE,74,11.0,11.0,87,0.00,,---,0.00,VWS V14.00,2013-02-20 12:31:00,
2013-02-20 06:32:00,64.0,60.1,29.90,ENE,74,11.0,12.0,87,0.00,,---,0.00,VWS V14.00,2013-02-20 12:32:00,
2013-02-20 06:33:00,64.1,60.2,29.90,ENE,74,6.0,11.0,87,0.00,,---,0.00,VWS V14.00,2013-02-20 12:33:00,
2013-02-20 06:34:00,64.2,60.3,29.90,ENE,76,11.0,12.0,87,0.00,,---,0.00,VWS V14.00,2013-02-20 12:34:00,
2013-02-20 06:35:00,64.9,60.9,29.90,East,86,10.0,13.0,87,0.00,,---,0.00,VWS V14.00,2013-02-20 12:35:00,
2013-02-20 06:36:00,64.7,60.8,29.90,East,80,13.0,14.0,87,0.00,,---,0.00,VWS V14.00,2013-02-20 12:36:00,
2013-02-20 06:37:00,64.9,60.9,29.90,East,86,13.0,13.0,87,0.00,,---,0.00,VWS V14.00,2013-02-20 12:37:00,
2013-02-20 06:38:00,65.0,61.0,29.90,East,86,11.0,13.0,87,0.00,,---,0.00,VWS V14.00,2013-02-20 12:38:00,
2013-02-20 06:39:00,65.2,61.2,29.90,East,87,20.0,20.0,87,0.00,,---,0.00,VWS V14.00,2013-02-20 12:39:00,
2013-02-20 06:40:00,65.7,61.4,29.89,East,94,13.0,16.0,86,0.00,,---,0.00,VWS V14.00,2013-02-20 12:40:00,
2013-02-20 06:41:00,65.5,61.2,29.89,East,95,18.0,20.0,86,0.00,,---,0.00,VWS V14.00,2013-02-20 12:41:00,
2013-02-20 06:42:00,65.7,61.7,29.89,East,94,13.0,18.0,87,0.00,,---,0.00,VWS V14.00,2013-02-20 12:42:00,
2013-02-20 06:43:00,65.8,61.5,29.89,East,94,13.0,16.0,86,0.00,,---,0.00,VWS V14.00,2013-02-20 12:43:00,
2013-02-20 06:44:00,65.9,61.6,29.89,East,92,13.0,19.0,86,0.00,,---,0.00,VWS V14.00,2013-02-20 12:44:00,
2013-02-20 06:45:00,66.1,61.8,29.89,East,98,14.0,16.0,86,0.00,,---,0.00,VWS V14.00,2013-02-20 12:45:00,
2013-02-20 06:46:00,66.0,61.7,29.89,East,94,11.0,15.0,86,0.00,,---,0.00,VWS V14.00,2013-02-20 12:46:00,
2013-02-20 06:47:00,66.1,61.8,29.89,East,98,14.0,19.0,86,0.00,,---,0.00,VWS V14.00,2013-02-20 12:47:00,
2013-02-20 06:48:00,66.1,61.8,29.89,East,97,16.0,16.0,86,0.00,,---,0.00,VWS V14.00,2013-02-20 12:48:00,
2013-02-20 06:49:00,66.1,61.8,29.89,East,97,14.0,15.0,86,0.00,,---,0.00,VWS V14.00,2013-02-20 12:49:00,
2013-02-20 06:50:00,66.3,62.0,29.90,East,96,13.0,15.0,86,0.00,,---,0.00,VWS V14.00,2013-02-20 12:50:00,
2013-02-20 06:51:00,66.3,62.0,29.90,East,96,15.0,18.0,86,0.00,,---,0.00,VWS V14.00,2013-02-20 12:51:00,
2013-02-20 06:52:00,66.3,62.0,29.90,East,98,14.0,15.0,86,0.00,,---,0.00,VWS V14.00,2013-02-20 12:52:00,
2013-02-20 06:53:00,66.3,62.0,29.90,East,96,13.0,16.0,86,0.00,,---,0.00,VWS V14.00,2013-02-20 12:53:00,
2013-02-20 06:54:00,66.4,62.1,29.90,East,96,15.0,15.0,86,0.00,,---,0.00,VWS V14.00,2013-02-20 12:54:00,
2013-02-20 06:55:00,66.5,62.2,29.90,East,98,14.0,16.0,86,0.00,,---,0.00,VWS V14.00,2013-02-20 12:55:00,
2013-02-20 06:56:00,66.5,62.2,29.90,East,97,12.0,15.0,86,0.00,,---,0.00,VWS V14.00,2013-02-20 12:56:00,
2013-02-20 06:57:00,66.5,62.2,29.90,East,98,11.0,13.0,86,0.00,,---,0.00,VWS V14.00,2013-02-20 12:57:00,
2013-02-20 06:58:00,66.5,62.2,29.90,East,97,13.0,16.0,86,0.00,,---,0.00,VWS V14.00,2013-02-20 12:58:00,
2013-02-20 06:59:00,66.5,62.2,29.90,East,97,9.0,13.0,86,0.00,,---,0.00,VWS V14.00,2013-02-20 12:59:00,
2013-02-20 07:00:00,66.6,62.3,29.90,East,98,15.0,15.0,86,0.00,,---,0.00,VWS V14.00,2013-02-20 13:00:00,
2013-02-20 07:01:00,66.6,62.3,29.90,East,100,14.0,16.0,86,0.00,,---,0.00,VWS V14.00,2013-02-20 13:01:00,
2013-02-20 07:02:00,66.6,62.3,29.90,East,100,13.0,15.0,86,0.00,,---,0.00,VWS V14.00,2013-02-20 13:02:00,
2013-02-20 07:03:00,66.7,62.4,29.90,East,98,13.0,15.0,86,0.00,,---,0.00,VWS V14.00,2013-02-20 13:03:00,
2013-02-20 07:04:00,66.7,62.4,29.90,East,97,14.0,14.0,86,0.00,,---,0.00,VWS V14.00,2013-02-20 13:04:00,
2013-02-20 07:05:00,66.7,62.4,29.91,East,97,9.0,11.0,86,0.00,,---,0.00,VWS V14.00,2013-02-20 13:05:00,
2013-02-20 07:06:00,66.7,62.4,29.91,East,97,9.0,13.0,86,0.00,,---,0.00,VWS V14.00,2013-02-20 13:06:00,
2013-02-20 07:07:00,66.7,62.4,29.91,East,97,9.0,11.0,86,0.00,,---,0.00,VWS V14.00,2013-02-20 13:07:00,
2013-02-20 07:08:00,66.7,62.4,29.91,East,97,11.0,13.0,86,0.00,,---,0.00,VWS V14.00,2013-02-20 13:08:00,
2013-02-20 07:09:00,66.7,62.4,29.91,East,97,9.0,13.0,86,0.00,,---,0.00,VWS V14.00,2013-02-20 13:09:00,
2013-02-20 07:10:00,66.9,62.6,29.91,ESE,105,7.0,13.0,86,0.00,,---,0.00,VWS V14.00,2013-02-20 13:10:00,
2013-02-20 07:11:00,66.8,62.5,29.91,ESE,106,9.0,15.0,86,0.00,,---,0.00,VWS V14.00,2013-02-20 13:11:00,
2013-02-20 07:12:00,66.9,62.6,29.91,ESE,105,13.0,13.0,86,0.00,,---,0.00,VWS V14.00,2013-02-20 13:12:00,
2013-02-20 07:13:00,66.9,62.6,29.91,ESE,105,12.0,13.0,86,0.00,,---,0.00,VWS V14.00,2013-02-20 13:13:00,
2013-02-20 07:14:00,66.9,62.6,29.91,ESE,105,9.0,12.0,86,0.00,,---,0.00,VWS V14.00,2013-02-20 13:14:00,
2013-02-20 07:15:00,66.9,62.6,29.91,ESE,103,16.0,19.0,86,0.00,,---,0.00,VWS V14.00,2013-02-20 13:15:00,
2013-02-20 07:16:00,66.9,62.6,29.91,ESE,105,16.0,16.0,86,0.00,,---,0.00,VWS V14.00,2013-02-20 13:16:00,
2013-02-20 07:17:00,66.9,62.6,29.91,ESE,105,15.0,16.0,86,0.00,,---,0.00,VWS V14.00,2013-02-20 13:17:00,
2013-02-20 07:18:00,66.9,62.6,29.91,East,88,12.0,19.0,86,0.00,,---,0.00,VWS V14.00,2013-02-20 13:18:00,
2013-02-20 07:19:00,67.0,62.7,29.91,East,89,11.0,14.0,86,0.00,,---,0.00,VWS V14.00,2013-02-20 13:19:00,
2013-02-20 07:20:00,67.0,62.7,29.91,East,101,15.0,15.0,86,0.00,,---,0.00,VWS V14.00,2013-02-20 13:20:00,
2013-02-20 07:21:00,66.9,62.6,29.91,East,90,12.0,13.0,86,0.00,,---,0.00,VWS V14.00,2013-02-20 13:21:00,
2013-02-20 07:22:00,67.0,62.7,29.91,East,92,12.0,14.0,86,0.00,,---,0.00,VWS V14.00,2013-02-20 13:22:00,
2013-02-20 07:23:00,67.0,62.7,29.91,ESE,107,14.0,19.0,86,0.00,,---,0.00,VWS V14.00,2013-02-20 13:23:00,
2013-02-20 07:24:00,67.1,62.8,29.91,ESE,106,12.0,19.0,86,0.00,,---,0.00,VWS V14.00,2013-02-20 13:24:00,
2013-02-20 07:25:00,67.1,62.8,29.90,ESE,103,15.0,16.0,86,0.00,,---,0.00,VWS V14.00,2013-02-20 13:25:00,
2013-02-20 07:26:00,67.1,62.8,29.91,ESE,105,15.0,18.0,86,0.00,,---,0.00,VWS V14.00,2013-02-20 13:26:00,
2013-02-20 07:27:00,67.1,62.8,29.90,ESE,103,16.0,18.0,86,0.00,,---,0.00,VWS V14.00,2013-02-20 13:27:00,
2013-02-20 07:28:00,67.1,62.8,29.91,ESE,103,14.0,18.0,86,0.00,,---,0.00,VWS V14.00,2013-02-20 13:28:00,
2013-02-20 07:29:00,67.1,62.8,29.91,East,91,12.0,15.0,86,0.00,,---,0.00,VWS V14.00,2013-02-20 13:29:00,
2013-02-20 07:30:00,67.1,62.8,29.91,East,87,8.0,10.0,86,0.00,,---,0.00,VWS V14.00,2013-02-20 13:30:00,
2013-02-20 07:31:00,67.1,62.8,29.91,East,87,10.0,13.0,86,0.00,,---,0.00,VWS V14.00,2013-02-20 13:31:00,
2013-02-20 07:32:00,67.1,62.8,29.91,East,87,7.0,11.0,86,0.00,,---,0.00,VWS V14.00,2013-02-20 13:32:00,
2013-02-20 07:33:00,67.1,62.8,29.91,East,90,14.0,15.0,86,0.00,,---,0.00,VWS V14.00,2013-02-20 13:33:00,
2013-02-20 07:34:00,67.2,62.9,29.90,East,91,12.0,15.0,86,0.00,,---,0.00,VWS V14.00,2013-02-20 13:34:00,
2013-02-20 07:35:00,67.3,63.0,29.89,East,94,15.0,20.0,86,0.00,,---,0.00,VWS V14.00,2013-02-20 13:35:00,
2013-02-20 07:36:00,67.2,62.9,29.90,East,94,16.0,18.0,86,0.00,,---,0.00,VWS V14.00,2013-02-20 13:36:00,
2013-02-20 07:37:00,67.2,62.9,29.90,East,90,18.0,21.0,86,0.00,,---,0.00,VWS V14.00,2013-02-20 13:37:00,
2013-02-20 07:38:00,67.3,63.0,29.89,East,98,15.0,20.0,86,0.00,,---,0.00,VWS V14.00,2013-02-20 13:38:00,
2013-02-20 07:39:00,67.3,63.0,29.89,East,98,19.0,19.0,86,0.00,,---,0.00,VWS V14.00,2013-02-20 13:39:00,
2013-02-20 07:40:00,67.3,63.0,29.89,East,96,15.0,22.0,86,0.00,,---,0.00,VWS V14.00,2013-02-20 13:40:00,
2013-02-20 07:41:00,67.3,63.0,29.89,East,98,15.0,16.0,86,0.00,,---,0.00,VWS V14.00,2013-02-20 13:41:00,
2013-02-20 07:42:00,67.3,63.0,29.89,East,97,22.0,22.0,86,0.00,,---,0.00,VWS V14.00,2013-02-20 13:42:00,
2013-02-20 07:43:00,67.4,63.4,29.89,East,99,15.0,22.0,87,0.00,,---,0.00,VWS V14.00,2013-02-20 13:43:00,
2013-02-20 07:44:00,67.4,63.4,29.89,ESE,104,14.0,21.0,87,0.00,,---,0.00,VWS V14.00,2013-02-20 13:44:00,
2013-02-20 07:45:00,67.4,63.1,29.89,East,100,21.0,23.0,86,0.00,,---,0.00,VWS V14.00,2013-02-20 13:45:00,
2013-02-20 07:46:00,67.4,63.1,29.89,East,98,18.0,21.0,86,0.00,,---,0.00,VWS V14.00,2013-02-20 13:46:00,
2013-02-20 07:47:00,67.4,63.4,29.89,East,96,15.0,21.0,87,0.00,,---,0.00,VWS V14.00,2013-02-20 13:47:00,
2013-02-20 07:48:00,67.5,63.2,29.89,East,97,15.0,23.0,86,0.00,,---,0.00,VWS V14.00,2013-02-20 13:48:00,
2013-02-20 07:49:00,67.5,63.2,29.89,East,98,16.0,20.0,86,0.00,,---,0.00,VWS V14.00,2013-02-20 13:49:00,
2013-02-20 07:50:00,67.6,63.6,29.89,East,101,15.0,16.0,87,0.00,,---,0.00,VWS V14.00,2013-02-20 13:50:00,
2013-02-20 07:51:00,67.5,63.2,29.89,East,101,15.0,19.0,86,0.00,,---,0.00,VWS V14.00,2013-02-20 13:51:00,
2013-02-20 07:52:00,67.6,63.6,29.89,East,101,15.0,20.0,87,0.00,,---,0.00,VWS V14.00,2013-02-20 13:52:00,
2013-02-20 07:53:00,67.6,63.3,29.89,East,99,13.0,18.0,86,0.00,,---,0.00,VWS V14.00,2013-02-20 13:53:00,
2013-02-20 07:54:00,67.6,63.3,29.89,ESE,102,16.0,19.0,86,0.00,,---,0.00,VWS V14.00,2013-02-20 13:54:00,
2013-02-20 07:55:00,67.7,63.4,29.89,ESE,105,20.0,20.0,86,0.00,,---,0.00,VWS V14.00,2013-02-20 13:55:00,
2013-02-20 07:56:00,67.7,63.7,29.89,ESE,105,15.0,22.0,87,0.00,,---,0.00,VWS V14.00,2013-02-20 13:56:00,
2013-02-20 07:57:00,67.7,63.4,29.89,ESE,105,18.0,22.0,86,0.00,,---,0.00,VWS V14.00,2013-02-20 13:57:00,
2013-02-20 07:58:00,67.7,63.7,29.89,East,100,19.0,23.0,87,0.00,,---,0.00,VWS V14.00,2013-02-20 13:58:00,
2013-02-20 07:59:00,67.8,63.8,29.89,ESE,103,12.0,19.0,87,0.00,,---,0.00,VWS V14.00,2013-02-20 13:59:00,
2013-02-20 08:00:00,67.8,63.8,29.89,ESE,110,15.0,21.0,87,0.00,,---,0.00,VWS V14.00,2013-02-20 14:00:00,
2013-02-20 08:01:00,67.8,63.8,29.89,East,98,16.0,21.0,87,0.00,,---,0.00,VWS V14.00,2013-02-20 14:01:00,
2013-02-20 08:02:00,67.8,63.8,29.89,ESE,108,16.0,22.0,87,0.00,,---,0.00,VWS V14.00,2013-02-20 14:02:00,
2013-02-20 08:03:00,67.8,63.8,29.89,ESE,110,18.0,21.0,87,0.00,,---,0.00,VWS V14.00,2013-02-20 14:03:00,
2013-02-20 08:04:00,67.9,63.9,29.89,ESE,110,14.0,21.0,87,0.00,,---,0.00,VWS V14.00,2013-02-20 14:04:00,
2013-02-20 08:05:00,67.9,63.9,29.89,ESE,111,23.0,23.0,87,0.00,,---,0.00,VWS V14.00,2013-02-20 14:05:00,
2013-02-20 08:06:00,67.9,63.9,29.89,ESE,107,19.0,22.0,87,0.00,,---,0.00,VWS V14.00,2013-02-20 14:06:00,
2013-02-20 08:07:00,67.9,63.9,29.89,ESE,109,21.0,21.0,87,0.00,,---,0.00,VWS V14.00,2013-02-20 14:07:00,
2013-02-20 08:08:00,68.0,64.0,29.89,ESE,104,24.0,26.0,87,0.00,,---,0.00,VWS V14.00,2013-02-20 14:08:00,
2013-02-20 08:09:00,68.0,64.0,29.89,ESE,114,19.0,24.0,87,0.00,,---,0.00,VWS V14.00,2013-02-20 14:09:00,
2013-02-20 08:10:00,68.1,64.1,29.89,ESE,109,16.0,19.0,87,0.00,,---,0.00,VWS V14.00,2013-02-20 14:10:00,
2013-02-20 08:11:00,68.1,64.1,29.89,ESE,114,18.0,24.0,87,0.00,,---,0.00,VWS V14.00,2013-02-20 14:11:00,
2013-02-20 08:12:00,68.1,64.1,29.89,ESE,107,15.0,23.0,87,0.00,,---,0.00,VWS V14.00,2013-02-20 14:12:00,
2013-02-20 08:13:00,68.1,64.1,29.89,ESE,108,19.0,21.0,87,0.00,,---,0.00,VWS V14.00,2013-02-20 14:13:00,
2013-02-20 08:14:00,68.1,64.1,29.89,ESE,115,16.0,22.0,87,0.00,,---,0.00,VWS V14.00,2013-02-20 14:14:00,
2013-02-20 08:15:00,68.2,64.2,29.89,ESE,111,20.0,21.0,87,0.00,,---,0.00,VWS V14.00,2013-02-20 14:15:00,
2013-02-20 08:16:00,68.1,64.1,29.89,ESE,113,18.0,20.0,87,0.00,,---,0.00,VWS V14.00,2013-02-20 14:16:00,
2013-02-20 08:17:00,68.2,64.2,29.89,ESE,115,20.0,20.0,87,0.00,,---,0.00,VWS V14.00,2013-02-20 14:17:00,
2013-02-20 08:18:00,68.2,64.2,29.89,SE,125,20.0,23.0,87,0.00,,---,0.00,VWS V14.00,2013-02-20 14:18:00,
2013-02-20 08:19:00,68.2,64.2,29.89,ESE,113,20.0,23.0,87,0.00,,---,0.00,VWS V14.00,2013-02-20 14:19:00,
2013-02-20 08:20:00,68.3,64.3,29.89,SE,124,21.0,23.0,87,0.00,,---,0.00,VWS V14.00,2013-02-20 14:20:00,
2013-02-20 08:21:00,68.3,64.3,29.89,ESE,110,15.0,22.0,87,0.00,,---,0.00,VWS V14.00,2013-02-20 14:21:00,
2013-02-20 08:22:00,68.3,64.3,29.89,ESE,103,23.0,24.0,87,0.00,,---,0.00,VWS V14.00,2013-02-20 14:22:00,
2013-02-20 08:23:00,68.2,64.2,29.89,ESE,119,13.0,23.0,87,0.00,,---,0.00,VWS V14.00,2013-02-20 14:23:00,
2013-02-20 08:24:00,68.3,64.3,29.89,SE,125,19.0,23.0,87,0.00,,---,0.00,VWS V14.00,2013-02-20 14:24:00,
2013-02-20 08:25:00,68.3,64.3,29.90,SE,124,17.0,20.0,87,0.00,,---,0.00,VWS V14.00,2013-02-20 14:25:00,
2013-02-20 08:26:00,68.3,64.3,29.89,ESE,105,18.0,23.0,87,0.00,,---,0.00,VWS V14.00,2013-02-20 14:26:00,
2013-02-20 08:27:00,68.3,64.3,29.90,SE,126,19.0,20.0,87,0.00,,---,0.00,VWS V14.00,2013-02-20 14:27:00,
2013-02-20 08:28:00,68.3,64.3,29.90,ESE,115,16.0,20.0,87,0.00,,---,0.00,VWS V14.00,2013-02-20 14:28:00,
2013-02-20 08:29:00,68.4,64.4,29.90,ESE,121,16.0,19.0,87,0.00,,---,0.00,VWS V14.00,2013-02-20 14:29:00,
2013-02-20 08:30:00,68.4,64.4,29.89,SE,124,15.0,22.0,87,0.00,,---,0.00,VWS V14.00,2013-02-20 14:30:00,
2013-02-20 08:31:00,68.4,64.4,29.90,SE,128,19.0,19.0,87,0.00,,---,0.00,VWS V14.00,2013-02-20 14:31:00,
2013-02-20 08:32:00,68.4,64.4,29.90,ESE,114,22.0,27.0,87,0.00,,---,0.00,VWS V14.00,2013-02-20 14:32:00,
2013-02-20 08:33:00,68.4,64.4,29.89,ESE,123,16.0,22.0,87,0.00,,---,0.00,VWS V14.00,2013-02-20 14:33:00,
2013-02-20 08:34:00,68.5,64.5,29.90,SE,129,18.0,21.0,87,0.00,,---,0.00,VWS V14.00,2013-02-20 14:34:00,
2013-02-20 08:35:00,68.5,64.5,29.90,ESE,121,17.0,23.0,87,0.00,,---,0.00,VWS V14.00,2013-02-20 14:35:00,
2013-02-20 08:36:00,68.5,64.5,29.90,SE,134,16.0,22.0,87,0.00,,---,0.00,VWS V14.00,2013-02-20 14:36:00,
2013-02-20 08:37:00,68.5,64.5,29.90,SE,128,22.0,24.0,87,0.00,,---,0.00,VWS V14.00,2013-02-20 14:37:00,
2013-02-20 08:38:00,68.5,64.5,29.90,SE,130,20.0,23.0,87,0.00,,---,0.00,VWS V14.00,2013-02-20 14:38:00,
2013-02-20 08:39:00,68.5,64.5,29.89,ESE,121,15.0,20.0,87,0.00,,---,0.00,VWS V14.00,2013-02-20 14:39:00,
2013-02-20 08:40:00,68.5,64.5,29.89,SE,125,19.0,20.0,87,0.00,,---,0.00,VWS V14.00,2013-02-20 14:40:00,
2013-02-20 08:41:00,68.5,64.5,29.89,ESE,115,23.0,23.0,87,0.00,,---,0.00,VWS V14.00,2013-02-20 14:41:00,
2013-02-20 08:42:00,68.5,64.5,29.89,ESE,111,20.0,23.0,87,0.00,,---,0.00,VWS V14.00,2013-02-20 14:42:00,
2013-02-20 08:43:00,68.5,64.5,29.89,ESE,121,20.0,24.0,87,0.00,,---,0.00,VWS V14.00,2013-02-20 14:43:00,
2013-02-20 08:44:00,68.5,64.5,29.90,SE,126,15.0,20.0,87,0.00,,---,0.00,VWS V14.00,2013-02-20 14:44:00,
2013-02-20 08:45:00,68.6,64.6,29.90,SE,130,15.0,23.0,87,0.00,,---,0.00,VWS V14.00,2013-02-20 14:45:00,
2013-02-20 08:46:00,68.6,64.6,29.90,SE,142,13.0,24.0,87,0.00,,---,0.00,VWS V14.00,2013-02-20 14:46:00,
2013-02-20 08:47:00,68.6,64.6,29.90,ESE,116,20.0,20.0,87,0.00,,---,0.00,VWS V14.00,2013-02-20 14:47:00,
2013-02-20 08:48:00,68.6,64.6,29.90,SE,130,19.0,23.0,87,0.00,,---,0.00,VWS V14.00,2013-02-20 14:48:00,
2013-02-20 08:49:00,68.7,64.7,29.90,SE,125,19.0,25.0,87,0.00,,---,0.00,VWS V14.00,2013-02-20 14:49:00,
2013-02-20 08:50:00,68.7,64.7,29.90,SE,129,19.0,20.0,87,0.00,,---,0.00,VWS V14.00,2013-02-20 14:50:00,
2013-02-20 08:51:00,68.7,64.7,29.90,ESE,119,22.0,23.0,87,0.00,,---,0.00,VWS V14.00,2013-02-20 14:51:00,
2013-02-20 08:52:00,68.7,64.7,29.90,ESE,121,16.0,22.0,87,0.00,,---,0.00,VWS V14.00,2013-02-20 14:52:00,
2013-02-20 08:53:00,68.7,64.7,29.90,SE,126,16.0,21.0,87,0.00,,---,0.00,VWS V14.00,2013-02-20 14:53:00,
2013-02-20 08:54:00,68.7,64.7,29.90,SE,126,18.0,22.0,87,0.00,,---,0.00,VWS V14.00,2013-02-20 14:54:00,
2013-02-20 08:55:00,68.7,64.7,29.89,SE,130,20.0,23.0,87,0.00,,---,0.00,VWS V14.00,2013-02-20 14:55:00,
2013-02-20 08:56:00,68.7,64.7,29.89,ESE,123,18.0,23.0,87,0.00,,---,0.00,VWS V14.00,2013-02-20 14:56:00,
2013-02-20 08:57:00,68.7,64.7,29.89,ESE,122,21.0,24.0,87,0.00,,---,0.00,VWS V14.00,2013-02-20 14:57:00,
2013-02-20 08:58:00,68.8,64.8,29.89,SE,140,18.0,23.0,87,0.00,,---,0.00,VWS V14.00,2013-02-20 14:58:00,
2013-02-20 08:59:00,68.8,64.8,29.89,ESE,120,19.0,22.0,87,0.00,,---,0.00,VWS V14.00,2013-02-20 14:59:00,
2013-02-20 09:00:00,68.8,65.1,29.88,ESE,112,20.0,21.0,88,0.00,,---,0.00,VWS V14.00,2013-02-20 15:00:00,
2013-02-20 09:01:00,68.8,65.1,29.88,ESE,122,19.0,25.0,88,0.00,,---,0.00,VWS V14.00,2013-02-20 15:01:00,
2013-02-20 09:02:00,68.8,65.1,29.88,ESE,117,20.0,24.0,88,0.00,,---,0.00,VWS V14.00,2013-02-20 15:02:00,
2013-02-20 09:03:00,68.8,65.1,29.88,ESE,116,25.0,25.0,88,0.00,,---,0.00,VWS V14.00,2013-02-20 15:03:00,
2013-02-20 09:04:00,68.8,65.1,29.88,ESE,121,18.0,28.0,88,0.00,,---,0.00,VWS V14.00,2013-02-20 15:04:00,
2013-02-20 09:05:00,68.6,64.6,29.89,ESE,111,19.0,19.0,87,0.00,,---,0.00,VWS V14.00,2013-02-20 15:05:00,
2013-02-20 09:06:00,68.7,64.7,29.88,SE,124,19.0,23.0,87,0.00,,---,0.00,VWS V14.00,2013-02-20 15:06:00,
2013-02-20 09:07:00,68.7,64.7,29.89,SE,142,14.0,20.0,87,0.00,,---,0.00,VWS V14.00,2013-02-20 15:07:00,
2013-02-20 09:08:00,68.6,64.6,29.89,SE,144,19.0,23.0,87,0.00,,---,0.00,VWS V14.00,2013-02-20 15:08:00,
2013-02-20 09:09:00,68.6,64.6,29.89,SE,146,17.0,21.0,87,0.00,,---,0.00,VWS V14.00,2013-02-20 15:09:00,
2013-02-20 09:10:00,68.6,64.9,29.88,SE,133,20.0,20.0,88,0.00,,---,0.00,VWS V14.00,2013-02-20 15:10:00,
2013-02-20 09:11:00,68.6,64.9,29.88,ESE,119,26.0,27.0,88,0.00,,---,0.00,VWS V14.00,2013-02-20 15:11:00,
2013-02-20 09:12:00,68.6,64.9,29.88,SE,136,19.0,26.0,88,0.00,,---,0.00,VWS V14.00,2013-02-20 15:12:00,
2013-02-20 09:13:00,68.6,64.9,29.88,ESE,109,15.0,21.0,88,0.00,,---,0.00,VWS V14.00,2013-02-20 15:13:00,
2013-02-20 09:14:00,68.5,64.8,29.88,ESE,117,14.0,23.0,88,0.00,,---,0.00,VWS V14.00,2013-02-20 15:14:00,
2013-02-20 09:15:00,68.5,64.8,29.88,ESE,120,20.0,22.0,88,0.00,,---,0.00,VWS V14.00,2013-02-20 15:15:00,
2013-02-20 09:16:00,68.6,64.9,29.88,ESE,117,16.0,21.0,88,0.00,,---,0.00,VWS V14.00,2013-02-20 15:16:00,
2013-02-20 09:17:00,68.5,64.8,29.88,ESE,115,19.0,19.0,88,0.00,,---,0.00,VWS V14.00,2013-02-20 15:17:00,
2013-02-20 09:18:00,68.5,64.8,29.88,ESE,122,21.0,22.0,88,0.00,,---,0.00,VWS V14.00,2013-02-20 15:18:00,
2013-02-20 09:19:00,68.5,64.8,29.88,SE,129,16.0,22.0,88,0.00,,---,0.00,VWS V14.00,2013-02-20 15:19:00,
2013-02-20 09:20:00,68.4,64.7,29.88,SE,125,22.0,22.0,88,0.00,,---,0.00,VWS V14.00,2013-02-20 15:20:00,
2013-02-20 09:21:00,68.4,64.7,29.88,ESE,116,16.0,19.0,88,0.00,,---,0.00,VWS V14.00,2013-02-20 15:21:00,
2013-02-20 09:22:00,68.4,64.7,29.88,ESE,117,20.0,21.0,88,0.00,,---,0.00,VWS V14.00,2013-02-20 15:22:00,
2013-02-20 09:23:00,68.4,64.7,29.88,SE,126,18.0,22.0,88,0.00,,---,0.00,VWS V14.00,2013-02-20 15:23:00,
2013-02-20 09:24:00,68.4,64.7,29.88,ESE,119,19.0,24.0,88,0.00,,---,0.00,VWS V14.00,2013-02-20 15:24:00,
2013-02-20 09:25:00,68.3,64.6,29.88,SE,133,21.0,22.0,88,0.00,,---,0.00,VWS V14.00,2013-02-20 15:25:00,
2013-02-20 09:26:00,68.3,64.6,29.88,ESE,111,18.0,25.0,88,0.00,,---,0.00,VWS V14.00,2013-02-20 15:26:00,
2013-02-20 09:27:00,68.3,64.6,29.88,SE,130,21.0,25.0,88,0.00,,---,0.00,VWS V14.00,2013-02-20 15:27:00,
2013-02-20 09:28:00,68.3,64.6,29.87,ESE,120,18.0,23.0,88,0.00,,---,0.00,VWS V14.00,2013-02-20 15:28:00,
2013-02-20 09:29:00,68.3,64.6,29.87,ESE,120,21.0,21.0,88,0.00,,---,0.00,VWS V14.00,2013-02-20 15:29:00,
2013-02-20 09:30:00,68.3,64.9,29.87,ESE,117,19.0,20.0,89,0.00,,---,0.00,VWS V14.00,2013-02-20 15:30:00,
2013-02-20 09:31:00,68.3,64.9,29.87,ESE,111,19.0,19.0,89,0.00,,---,0.00,VWS V14.00,2013-02-20 15:31:00,
2013-02-20 09:32:00,68.3,64.9,29.87,ESE,119,14.0,19.0,89,0.00,,---,0.00,VWS V14.00,2013-02-20 15:32:00,
2013-02-20 09:33:00,68.3,64.9,29.87,ESE,113,18.0,22.0,89,0.00,,---,0.00,VWS V14.00,2013-02-20 15:33:00,
2013-02-20 09:34:00,68.4,65.0,29.87,SE,126,21.0,22.0,89,0.00,,---,0.00,VWS V14.00,2013-02-20 15:34:00,
2013-02-20 09:35:00,68.6,65.2,29.87,SE,127,18.0,22.0,89,0.00,,---,0.00,VWS V14.00,2013-02-20 15:35:00,
2013-02-20 09:36:00,68.5,65.1,29.86,SE,128,17.0,19.0,89,0.00,,---,0.00,VWS V14.00,2013-02-20 15:36:00,
2013-02-20 09:37:00,68.6,65.2,29.87,SE,131,22.0,22.0,89,0.00,,---,0.00,VWS V14.00,2013-02-20 15:37:00,
2013-02-20 09:38:00,68.6,65.2,29.87,SE,128,19.0,23.0,89,0.00,,---,0.00,VWS V14.00,2013-02-20 15:38:00,
2013-02-20 09:39:00,68.7,65.3,29.86,SE,130,22.0,23.0,89,0.00,,---,0.00,VWS V14.00,2013-02-20 15:39:00,
2013-02-20 09:40:00,68.8,65.1,29.86,SE,130,20.0,24.0,88,0.00,,---,0.00,VWS V14.00,2013-02-20 15:40:00,
2013-02-20 09:41:00,68.7,65.0,29.86,SE,131,21.0,24.0,88,0.00,,---,0.00,VWS V14.00,2013-02-20 15:41:00,
2013-02-20 09:42:00,68.7,65.0,29.86,SE,135,15.0,23.0,88,0.00,,---,0.00,VWS V14.00,2013-02-20 15:42:00,
2013-02-20 09:43:00,68.8,65.4,29.86,SE,128,18.0,27.0,89,0.00,,---,0.00,VWS V14.00,2013-02-20 15:43:00,
2013-02-20 09:44:00,68.9,65.5,29.86,SE,128,19.0,26.0,89,0.00,,---,0.00,VWS V14.00,2013-02-20 15:44:00,
2013-02-20 09:45:00,69.0,65.3,29.86,SE,125,20.0,24.0,88,0.00,,---,0.00,VWS V14.00,2013-02-20 15:45:00,
2013-02-20 09:46:00,69.0,65.6,29.86,SE,138,15.0,23.0,89,0.00,,---,0.00,VWS V14.00,2013-02-20 15:46:00,
2013-02-20 09:47:00,69.0,65.3,29.86,SSE,147,24.0,24.0,88,0.00,,---,0.00,VWS V14.00,2013-02-20 15:47:00,
2013-02-20 09:48:00,68.9,65.2,29.86,SE,130,17.0,24.0,88,0.00,,---,0.00,VWS V14.00,2013-02-20 15:48:00,
2013-02-20 09:49:00,69.0,65.3,29.86,SE,133,18.0,21.0,88,0.00,,---,0.00,VWS V14.00,2013-02-20 15:49:00,
2013-02-20 09:50:00,69.1,65.7,29.86,SE,129,21.0,24.0,89,0.00,,---,0.00,VWS V14.00,2013-02-20 15:50:00,
2013-02-20 09:51:00,69.1,65.4,29.85,SSE,153,15.0,23.0,88,0.00,,---,0.00,VWS V14.00,2013-02-20 15:51:00,
2013-02-20 09:52:00,69.1,65.7,29.86,SE,126,20.0,22.0,89,0.00,,---,0.00,VWS V14.00,2013-02-20 15:52:00,
2013-02-20 09:53:00,69.1,65.4,29.86,SE,128,17.0,24.0,88,0.00,,---,0.00,VWS V14.00,2013-02-20 15:53:00,
2013-02-20 09:54:00,69.2,65.5,29.86,SE,140,15.0,22.0,88,0.00,,---,0.00,VWS V14.00,2013-02-20 15:54:00,
2013-02-20 09:55:00,69.3,65.6,29.86,SE,126,19.0,21.0,88,0.00,,---,0.00,VWS V14.00,2013-02-20 15:55:00,
2013-02-20 09:56:00,69.3,65.6,29.86,SE,131,21.0,25.0,88,0.00,,---,0.00,VWS V14.00,2013-02-20 15:56:00,
2013-02-20 09:57:00,69.3,65.6,29.86,SE,142,18.0,22.0,88,0.00,,---,0.00,VWS V14.00,2013-02-20 15:57:00,
2013-02-20 09:58:00,69.3,65.6,29.86,SE,141,20.0,23.0,88,0.00,,---,0.00,VWS V14.00,2013-02-20 15:58:00,
2013-02-20 09:59:00,69.3,65.6,29.86,SE,143,21.0,23.0,88,0.00,,---,0.00,VWS V14.00,2013-02-20 15:59:00,
2013-02-20 10:00:00,69.3,65.6,29.86,SE,125,20.0,22.0,88,0.00,,---,0.00,VWS V14.00,2013-02-20 16:00:00,
2013-02-20 10:01:00,69.3,65.6,29.86,SE,136,21.0,25.0,88,0.00,,---,0.00,VWS V14.00,2013-02-20 16:01:00,
2013-02-20 10:02:00,69.3,65.6,29.86,ESE,121,21.0,23.0,88,0.00,,---,0.00,VWS V14.00,2013-02-20 16:02:00,
2013-02-20 10:03:00,69.3,65.6,29.86,SE,140,26.0,26.0,88,0.00,,---,0.00,VWS V14.00,2013-02-20 16:03:00,
2013-02-20 10:04:00,69.3,65.6,29.86,SE,124,23.0,26.0,88,0.00,,---,0.00,VWS V14.00,2013-02-20 16:04:00,
2013-02-20 10:05:00,69.4,65.7,29.86,SE,134,20.0,23.0,88,0.00,,---,0.00,VWS V14.00,2013-02-20 16:05:00,
2013-02-20 10:06:00,69.3,65.6,29.86,SE,130,21.0,24.0,88,0.00,,---,0.00,VWS V14.00,2013-02-20 16:06:00,
2013-02-20 10:07:00,69.3,65.6,29.86,ESE,105,16.0,24.0,88,0.00,,---,0.00,VWS V14.00,2013-02-20 16:07:00,
2013-02-20 10:08:00,69.4,65.7,29.86,SE,131,14.0,23.0,88,0.00,,---,0.00,VWS V14.00,2013-02-20 16:08:00,
2013-02-20 10:09:00,69.4,65.7,29.86,SE,132,20.0,24.0,88,0.00,,---,0.00,VWS V14.00,2013-02-20 16:09:00,
2013-02-20 10:10:00,69.4,65.7,29.86,SSE,151,18.0,23.0,88,0.00,,---,0.00,VWS V14.00,2013-02-20 16:10:00,
2013-02-20 10:11:00,69.5,65.8,29.86,SE,143,22.0,22.0,88,0.00,,---,0.00,VWS V14.00,2013-02-20 16:11:00,
2013-02-20 18:36:00,69.4,66.7,29.68,SE,134,14.0,14.0,91,0.00,,---,0.00,VWS V14.00,2013-02-21 00:36:00,
2013-02-20 18:39:00,69.4,66.7,29.68,SE,134,14.0,14.0,91,0.00,,---,0.00,VWS V14.00,2013-02-21 00:39:00,
2013-02-20 18:40:00,69.4,66.7,29.68,SE,124,16.0,18.0,91,0.00,,---,0.00,VWS V14.00,2013-02-21 00:40:00,
2013-02-20 18:41:00,69.3,66.6,29.68,SE,136,19.0,20.0,91,0.00,,---,0.00,VWS V14.00,2013-02-21 00:41:00,
2013-02-20 18:42:00,69.4,66.7,29.68,SE,132,12.0,18.0,91,0.00,,---,0.00,VWS V14.00,2013-02-21 00:42:00,
2013-02-20 18:43:00,69.3,66.6,29.68,SE,134,18.0,18.0,91,0.00,,---,0.00,VWS V14.00,2013-02-21 00:43:00,
2013-02-20 18:44:00,69.3,66.6,29.68,SSE,149,18.0,20.0,91,0.00,,---,0.00,VWS V14.00,2013-02-21 00:44:00,
2013-02-20 18:45:00,69.3,66.6,29.68,SE,139,17.0,20.0,91,0.00,,---,0.00,VWS V14.00,2013-02-21 00:45:00,
2013-02-20 18:46:00,69.3,66.6,29.68,SE,129,17.0,19.0,91,0.00,,---,0.00,VWS V14.00,2013-02-21 00:46:00,
2013-02-20 18:47:00,69.3,66.6,29.68,SE,128,15.0,20.0,91,0.00,,---,0.00,VWS V14.00,2013-02-21 00:47:00,
2013-02-20 18:48:00,69.3,66.6,29.68,ESE,123,13.0,18.0,91,0.00,,---,0.00,VWS V14.00,2013-02-21 00:48:00,
2013-02-20 18:49:00,69.3,66.6,29.68,SE,129,17.0,19.0,91,0.00,,---,0.00,VWS V14.00,2013-02-21 00:49:00,
2013-02-20 18:50:00,69.3,66.6,29.68,SE,136,20.0,21.0,91,0.00,,---,0.00,VWS V14.00,2013-02-21 00:50:00,
2013-02-20 18:51:00,69.5,66.8,29.68,SE,138,18.0,21.0,91,0.00,,---,0.00,VWS V14.00,2013-02-21 00:51:00,
2013-02-20 18:52:00,69.4,66.7,29.68,SSE,149,14.0,22.0,91,0.00,,---,0.00,VWS V14.00,2013-02-21 00:52:00,
2013-02-20 18:53:00,69.4,66.7,29.68,SSE,150,16.0,18.0,91,0.00,,---,0.00,VWS V14.00,2013-02-21 00:53:00,
2013-02-20 18:54:00,69.5,66.8,29.68,SE,138,18.0,21.0,91,0.00,,---,0.00,VWS V14.00,2013-02-21 00:54:00,
2013-02-20 18:55:00,69.6,66.9,29.68,SE,131,19.0,21.0,91,0.00,,---,0.00,VWS V14.00,2013-02-21 00:55:00,
2013-02-20 18:56:00,69.7,67.0,29.68,SE,131,18.0,22.0,91,0.00,,---,0.00,VWS V14.00,2013-02-21 00:56:00,
2013-02-20 18:57:00,69.6,66.9,29.68,SE,136,21.0,21.0,91,0.00,,---,0.00,VWS V14.00,2013-02-21 00:57:00,
2013-02-20 18:58:00,69.7,67.0,29.68,SE,134,21.0,21.0,91,0.00,,---,0.00,VWS V14.00,2013-02-21 00:58:00,
2013-02-20 18:59:00,69.7,67.0,29.68,SE,131,18.0,22.0,91,0.00,,---,0.00,VWS V14.00,2013-02-21 00:59:00,
2013-02-20 19:00:00,69.7,67.0,29.68,SE,131,15.0,19.0,91,0.00,,---,0.00,VWS V14.00,2013-02-21 01:00:00,
2013-02-20 19:01:00,69.7,67.0,29.68,SE,143,14.0,19.0,91,0.00,,---,0.00,VWS V14.00,2013-02-21 01:01:00,
2013-02-20 19:02:00,69.8,67.1,29.68,ESE,122,14.0,19.0,91,0.00,,---,0.00,VWS V14.00,2013-02-21 01:02:00,
2013-02-20 19:03:00,69.7,67.0,29.68,SE,131,14.0,20.0,91,0.00,,---,0.00,VWS V14.00,2013-02-21 01:03:00,
2013-02-20 19:04:00,69.7,67.0,29.68,SE,143,14.0,19.0,91,0.00,,---,0.00,VWS V14.00,2013-02-21 01:04:00,
2013-02-20 19:05:00,69.7,67.0,29.68,ESE,121,18.0,20.0,91,0.00,,---,0.00,VWS V14.00,2013-02-21 01:05:00,
2013-02-20 19:06:00,69.7,67.0,29.68,SE,137,17.0,17.0,91,0.00,,---,0.00,VWS V14.00,2013-02-21 01:06:00,
2013-02-20 19:07:00,69.7,67.0,29.68,SE,131,14.0,20.0,91,0.00,,---,0.00,VWS V14.00,2013-02-21 01:07:00,
2013-02-20 19:08:00,69.7,67.0,29.68,SE,130,15.0,18.0,91,0.00,,---,0.00,VWS V14.00,2013-02-21 01:08:00,
2013-02-20 19:09:00,69.7,67.0,29.68,SE,126,16.0,17.0,91,0.00,,---,0.00,VWS V14.00,2013-02-21 01:09:00,
2013-02-20 19:10:00,69.7,67.0,29.68,ESE,120,16.0,19.0,91,0.00,,---,0.00,VWS V14.00,2013-02-21 01:10:00,
2013-02-20 19:11:00,69.7,67.0,29.68,SE,128,15.0,15.0,91,0.00,,---,0.00,VWS V14.00,2013-02-21 01:11:00,
2013-02-20 19:12:00,69.7,67.0,29.68,ESE,122,12.0,20.0,91,0.00,,---,0.00,VWS V14.00,2013-02-21 01:12:00,
2013-02-20 19:13:00,69.7,67.0,29.68,ESE,119,13.0,18.0,91,0.00,,---,0.00,VWS V14.00,2013-02-21 01:13:00,
2013-02-20 19:14:00,69.7,67.0,29.68,SE,137,15.0,19.0,91,0.00,,---,0.00,VWS V14.00,2013-02-21 01:14:00,
2013-02-20 19:15:00,69.6,66.9,29.68,ESE,109,12.0,15.0,91,0.00,,---,0.00,VWS V14.00,2013-02-21 01:15:00,
2013-02-20 19:16:00,69.6,67.2,29.68,ESE,110,15.0,15.0,92,0.00,,---,0.00,VWS V14.00,2013-02-21 01:16:00,
2013-02-20 19:17:00,69.6,66.9,29.68,ESE,122,13.0,15.0,91,0.00,,---,0.00,VWS V14.00,2013-02-21 01:17:00,
2013-02-20 19:18:00,69.6,66.9,29.68,ESE,119,11.0,17.0,91,0.00,,---,0.00,VWS V14.00,2013-02-21 01:18:00,
2013-02-20 19:19:00,69.6,66.9,29.68,ESE,105,15.0,17.0,91,0.00,,---,0.00,VWS V14.00,2013-02-21 01:19:00,
2013-02-20 19:20:00,69.6,67.2,29.68,ESE,111,14.0,20.0,92,0.00,,---,0.00,VWS V14.00,2013-02-21 01:20:00,
2013-02-20 19:21:00,69.4,67.0,29.68,ESE,119,15.0,17.0,92,0.00,,---,0.00,VWS V14.00,2013-02-21 01:21:00,
2013-02-20 19:22:00,69.5,66.8,29.68,ESE,111,12.0,16.0,91,0.00,,---,0.00,VWS V14.00,2013-02-21 01:22:00,
2013-02-20 19:23:00,69.5,67.1,29.69,ESE,116,12.0,16.0,92,0.00,,---,0.00,VWS V14.00,2013-02-21 01:23:00,
2013-02-20 19:24:00,69.4,67.0,29.68,ESE,123,17.0,18.0,92,0.00,,---,0.00,VWS V14.00,2013-02-21 01:24:00,
2013-02-20 19:25:00,69.4,67.0,29.68,ESE,116,18.0,18.0,92,0.00,,---,0.00,VWS V14.00,2013-02-21 01:25:00,
2013-02-20 19:26:00,69.3,66.9,29.68,ESE,121,16.0,17.0,92,0.00,,---,0.00,VWS V14.00,2013-02-21 01:26:00,
2013-02-20 19:27:00,69.3,66.9,29.68,ESE,121,13.0,16.0,92,0.00,,---,0.00,VWS V14.00,2013-02-21 01:27:00,
2013-02-20 19:28:00,69.3,66.9,29.68,ESE,109,15.0,18.0,92,0.00,,---,0.00,VWS V14.00,2013-02-21 01:28:00,
2013-02-20 19:29:00,69.3,66.9,29.68,SE,126,16.0,19.0,92,0.00,,---,0.00,VWS V14.00,2013-02-21 01:29:00,
2013-02-20 19:30:00,69.3,66.9,29.68,ESE,116,14.0,18.0,92,0.00,,---,0.00,VWS V14.00,2013-02-21 01:30:00,
2013-02-20 19:31:00,69.2,66.8,29.68,ESE,114,16.0,16.0,92,0.00,,---,0.00,VWS V14.00,2013-02-21 01:31:00,
2013-02-20 19:32:00,69.3,66.9,29.68,ESE,123,12.0,21.0,92,0.00,,---,0.00,VWS V14.00,2013-02-21 01:32:00,
2013-02-20 19:33:00,69.2,66.8,29.68,ESE,119,16.0,17.0,92,0.00,,---,0.00,VWS V14.00,2013-02-21 01:33:00,
2013-02-20 19:34:00,69.3,66.9,29.68,ESE,112,11.0,18.0,92,0.00,,---,0.00,VWS V14.00,2013-02-21 01:34:00,
2013-02-20 19:35:00,69.2,66.8,29.68,ESE,117,18.0,18.0,92,0.00,,---,0.00,VWS V14.00,2013-02-21 01:35:00,
2013-02-20 19:36:00,69.3,66.9,29.68,ESE,117,13.0,13.0,92,0.00,,---,0.00,VWS V14.00,2013-02-21 01:36:00,
2013-02-20 19:37:00,69.3,66.9,29.68,SE,124,16.0,19.0,92,0.00,,---,0.00,VWS V14.00,2013-02-21 01:37:00,
2013-02-20 19:38:00,69.3,66.9,29.68,ESE,115,15.0,19.0,92,0.00,,---,0.00,VWS V14.00,2013-02-21 01:38:00,
2013-02-20 19:39:00,69.3,66.9,29.68,ESE,117,12.0,18.0,92,0.00,,---,0.00,VWS V14.00,2013-02-21 01:39:00,
2013-02-20 19:40:00,69.2,66.8,29.68,ESE,112,16.0,18.0,92,0.00,,---,0.00,VWS V14.00,2013-02-21 01:40:00,
2013-02-20 19:41:00,69.2,66.8,29.68,ESE,121,16.0,17.0,92,0.00,,---,0.00,VWS V14.00,2013-02-21 01:41:00,
2013-02-20 19:42:00,69.2,66.8,29.68,SE,125,12.0,15.0,92,0.00,,---,0.00,VWS V14.00,2013-02-21 01:42:00,
2013-02-20 19:43:00,69.2,66.8,29.68,ESE,108,16.0,18.0,92,0.00,,---,0.00,VWS V14.00,2013-02-21 01:43:00,
2013-02-20 19:44:00,69.2,66.8,29.68,ESE,122,17.0,19.0,92,0.00,,---,0.00,VWS V14.00,2013-02-21 01:44:00,
2013-02-20 19:45:00,69.2,66.8,29.68,ESE,109,15.0,17.0,92,0.00,,---,0.00,VWS V14.00,2013-02-21 01:45:00,
2013-02-20 19:46:00,69.2,66.8,29.68,ESE,123,16.0,16.0,92,0.00,,---,0.00,VWS V14.00,2013-02-21 01:46:00,
2013-02-20 19:47:00,69.1,66.7,29.68,ESE,119,14.0,20.0,92,0.00,,---,0.00,VWS V14.00,2013-02-21 01:47:00,
2013-02-20 19:48:00,69.2,66.8,29.68,ESE,109,18.0,20.0,92,0.00,,---,0.00,VWS V14.00,2013-02-21 01:48:00,
2013-02-20 19:49:00,69.1,66.7,29.68,ESE,123,14.0,18.0,92,0.00,,---,0.00,VWS V14.00,2013-02-21 01:49:00,
2013-02-20 19:50:00,69.1,66.7,29.68,ESE,121,13.0,18.0,92,0.00,,---,0.00,VWS V14.00,2013-02-21 01:50:00,
2013-02-20 19:51:00,69.1,66.7,29.68,ESE,123,17.0,18.0,92,0.00,,---,0.00,VWS V14.00,2013-02-21 01:51:00,
2013-02-20 19:52:00,69.1,66.7,29.68,SE,130,19.0,21.0,92,0.00,,---,0.00,VWS V14.00,2013-02-21 01:52:00,
2013-02-20 19:53:00,69.1,66.7,29.68,ESE,113,15.0,20.0,92,0.00,,---,0.00,VWS V14.00,2013-02-21 01:53:00,
2013-02-20 19:54:00,69.2,66.8,29.68,SE,126,15.0,19.0,92,0.00,,---,0.00,VWS V14.00,2013-02-21 01:54:00,
2013-02-20 19:56:00,69.0,66.6,29.68,SE,130,12.0,15.0,92,0.00,,---,0.00,VWS V14.00,2013-02-21 01:56:00,
2013-02-20 19:57:00,69.0,66.6,29.68,ESE,121,16.0,21.0,92,0.00,,---,0.00,VWS V14.00,2013-02-21 01:57:00,
2013-02-20 19:58:00,69.0,66.6,29.68,ESE,122,14.0,18.0,92,0.00,,---,0.00,VWS V14.00,2013-02-21 01:58:00,
2013-02-20 19:59:00,69.0,66.6,29.68,SE,137,13.0,19.0,92,0.00,,---,0.00,VWS V14.00,2013-02-21 01:59:00,
2013-02-20 20:00:00,69.0,66.6,29.68,ESE,123,15.0,20.0,92,0.00,,---,0.00,VWS V14.00,2013-02-21 02:00:00,
2013-02-20 20:01:00,68.9,66.5,29.68,ESE,113,21.0,21.0,92,0.00,,---,0.00,VWS V14.00,2013-02-21 02:01:00,
2013-02-20 20:02:00,69.0,66.6,29.68,ESE,121,17.0,20.0,92,0.00,,---,0.00,VWS V14.00,2013-02-21 02:02:00,
2013-02-20 20:03:00,69.0,66.6,29.68,SE,128,14.0,18.0,92,0.00,,---,0.00,VWS V14.00,2013-02-21 02:03:00,
2013-02-20 20:04:00,68.9,66.5,29.68,ESE,112,13.0,20.0,92,0.00,,---,0.00,VWS V14.00,2013-02-21 02:04:00,
2013-02-20 20:05:00,69.0,66.6,29.68,ESE,123,12.0,21.0,92,0.00,,---,0.00,VWS V14.00,2013-02-21 02:05:00,
2013-02-20 20:06:00,69.0,66.9,29.68,ESE,118,11.0,14.0,93,0.00,,---,0.00,VWS V14.00,2013-02-21 02:06:00,
2013-02-20 20:07:00,69.0,66.6,29.68,ESE,116,19.0,21.0,92,0.00,,---,0.00,VWS V14.00,2013-02-21 02:07:00,
2013-02-20 20:08:00,69.0,66.6,29.67,SE,128,14.0,19.0,92,0.00,,---,0.00,VWS V14.00,2013-02-21 02:08:00,
2013-02-20 20:09:00,69.0,66.9,29.68,SE,132,14.0,20.0,93,0.00,,---,0.00,VWS V14.00,2013-02-21 02:09:00,
2013-02-20 20:10:00,69.0,66.9,29.67,ESE,123,15.0,19.0,93,0.00,,---,0.00,VWS V14.00,2013-02-21 02:10:00,
2013-02-20 20:11:00,69.0,66.9,29.67,SE,134,16.0,16.0,93,0.00,,---,0.00,VWS V14.00,2013-02-21 02:11:00,
2013-02-20 20:12:00,69.0,66.6,29.67,ESE,121,16.0,21.0,92,0.00,,---,0.00,VWS V14.00,2013-02-21 02:12:00,
2013-02-20 20:13:00,69.0,66.9,29.67,ESE,118,15.0,21.0,93,0.00,,---,0.00,VWS V14.00,2013-02-21 02:13:00,
2013-02-20 20:14:00,69.0,66.9,29.67,SE,128,15.0,18.0,93,0.00,,---,0.00,VWS V14.00,2013-02-21 02:14:00,
2013-02-20 20:15:00,68.9,66.8,29.68,SE,124,13.0,18.0,93,0.00,,---,0.00,VWS V14.00,2013-02-21 02:15:00,
2013-02-20 20:16:00,68.9,66.8,29.67,SE,131,19.0,19.0,93,0.00,,---,0.00,VWS V14.00,2013-02-21 02:16:00,
2013-02-20 20:17:00,68.9,66.8,29.67,SE,130,16.0,20.0,93,0.00,,---,0.00,VWS V14.00,2013-02-21 02:17:00,
2013-02-20 20:18:00,68.9,66.8,29.67,ESE,120,17.0,20.0,93,0.00,,---,0.00,VWS V14.00,2013-02-21 02:18:00,
2013-02-20 20:19:00,68.9,66.8,29.67,SE,131,18.0,22.0,93,0.00,,---,0.00,VWS V14.00,2013-02-21 02:19:00,
2013-02-20 20:20:00,68.9,66.8,29.68,SE,143,14.0,19.0,93,0.00,,---,0.00,VWS V14.00,2013-02-21 02:20:00,
2013-02-20 20:21:00,68.8,66.7,29.68,SE,135,14.0,15.0,93,0.00,,---,0.00,VWS V14.00,2013-02-21 02:21:00,
2013-02-20 20:22:00,68.9,66.8,29.67,SE,124,19.0,20.0,93,0.00,,---,0.00,VWS V14.00,2013-02-21 02:22:00,
2013-02-20 20:23:00,68.9,66.8,29.67,ESE,119,16.0,19.0,93,0.00,,---,0.00,VWS V14.00,2013-02-21 02:23:00,
2013-02-20 20:24:00,68.8,66.7,29.68,SE,132,15.0,18.0,93,0.00,,---,0.00,VWS V14.00,2013-02-21 02:24:00,
2013-02-20 20:25:00,68.8,66.7,29.68,ESE,123,14.0,22.0,93,0.00,,---,0.00,VWS V14.00,2013-02-21 02:25:00,
2013-02-20 20:26:00,68.9,66.8,29.67,SE,141,15.0,17.0,93,0.00,,---,0.00,VWS V14.00,2013-02-21 02:26:00,
2013-02-20 20:27:00,68.9,66.8,29.68,SE,139,14.0,18.0,93,0.00,,---,0.00,VWS V14.00,2013-02-21 02:27:00,
2013-02-20 20:28:00,68.9,66.8,29.68,SE,130,14.0,18.0,93,0.00,,---,0.00,VWS V14.00,2013-02-21 02:28:00,
2013-02-20 20:29:00,68.9,66.8,29.67,ESE,121,18.0,18.0,93,0.00,,---,0.00,VWS V14.00,2013-02-21 02:29:00,
2013-02-20 20:30:00,68.9,66.8,29.67,SE,142,18.0,18.0,93,0.00,,---,0.00,VWS V14.00,2013-02-21 02:30:00,
2013-02-20 20:31:00,68.9,66.8,29.67,SE,130,17.0,18.0,93,0.00,,---,0.00,VWS V14.00,2013-02-21 02:31:00,
2013-02-20 20:32:00,68.9,66.8,29.67,ESE,122,15.0,18.0,93,0.00,,---,0.00,VWS V14.00,2013-02-21 02:32:00,
2013-02-20 20:33:00,68.9,66.8,29.67,SE,133,17.0,21.0,93,0.00,,---,0.00,VWS V14.00,2013-02-21 02:33:00,
2013-02-20 20:34:00,68.9,66.8,29.67,SE,146,18.0,18.0,93,0.00,,---,0.00,VWS V14.00,2013-02-21 02:34:00,
2013-02-20 20:35:00,68.9,66.8,29.67,SE,145,12.0,21.0,93,0.00,,---,0.00,VWS V14.00,2013-02-21 02:35:00,
2013-02-20 20:36:00,68.9,66.8,29.67,ESE,121,14.0,21.0,93,0.00,,---,0.00,VWS V14.00,2013-02-21 02:36:00,
2013-02-20 20:37:00,69.0,66.9,29.67,SE,136,18.0,18.0,93,0.00,,---,0.00,VWS V14.00,2013-02-21 02:37:00,
2013-02-20 20:38:00,69.0,66.9,29.67,ESE,121,14.0,19.0,93,0.00,,---,0.00,VWS V14.00,2013-02-21 02:38:00,
2013-02-20 20:39:00,69.0,66.9,29.67,ESE,121,17.0,23.0,93,0.00,,---,0.00,VWS V14.00,2013-02-21 02:39:00,
2013-02-20 20:40:00,69.0,66.9,29.67,SE,136,18.0,19.0,93,0.00,,---,0.00,VWS V14.00,2013-02-21 02:40:00,
2013-02-20 20:41:00,69.0,66.9,29.67,SE,132,19.0,20.0,93,0.00,,---,0.00,VWS V14.00,2013-02-21 02:41:00,
2013-02-20 20:42:00,69.0,66.9,29.67,ESE,123,16.0,20.0,93,0.00,,---,0.00,VWS V14.00,2013-02-21 02:42:00,
2013-02-20 20:43:00,69.0,66.9,29.67,SE,134,16.0,19.0,93,0.00,,---,0.00,VWS V14.00,2013-02-21 02:43:00,
2013-02-20 20:44:00,69.0,66.9,29.67,SE,136,15.0,20.0,93,0.00,,---,0.00,VWS V14.00,2013-02-21 02:44:00,
2013-02-20 20:45:00,69.0,66.9,29.67,SE,132,15.0,20.0,93,0.00,,---,0.00,VWS V14.00,2013-02-21 02:45:00,
2013-02-20 20:46:00,69.0,66.9,29.66,SE,144,17.0,21.0,93,0.00,,---,0.00,VWS V14.00,2013-02-21 02:46:00,
2013-02-20 20:47:00,68.9,66.8,29.67,SE,131,13.0,17.0,93,0.00,,---,0.00,VWS V14.00,2013-02-21 02:47:00,
2013-02-20 20:48:00,69.0,66.9,29.67,SE,128,17.0,20.0,93,0.00,,---,0.00,VWS V14.00,2013-02-21 02:48:00,
2013-02-20 20:49:00,69.0,66.9,29.67,SE,135,17.0,18.0,93,0.00,,---,0.00,VWS V14.00,2013-02-21 02:49:00,
2013-02-20 20:50:00,68.9,66.8,29.67,SE,128,17.0,18.0,93,0.00,,---,0.00,VWS V14.00,2013-02-21 02:50:00,
2013-02-20 20:51:00,68.9,66.8,29.66,SE,131,18.0,19.0,93,0.00,,---,0.00,VWS V14.00,2013-02-21 02:51:00,
2013-02-20 20:52:00,69.0,66.9,29.66,SE,134,18.0,19.0,93,0.00,,---,0.00,VWS V14.00,2013-02-21 02:52:00,
2013-02-20 20:53:00,69.0,66.9,29.66,SE,132,16.0,19.0,93,0.00,,---,0.00,VWS V14.00,2013-02-21 02:53:00,
2013-02-20 20:54:00,69.0,66.9,29.66,ESE,116,19.0,21.0,93,0.00,,---,0.00,VWS V14.00,2013-02-21 02:54:00,
2013-02-20 20:55:00,69.0,66.9,29.66,SE,139,18.0,20.0,93,0.00,,---,0.00,VWS V14.00,2013-02-21 02:55:00,
2013-02-20 20:56:00,69.0,66.9,29.66,SE,144,18.0,18.0,93,0.00,,---,0.00,VWS V14.00,2013-02-21 02:56:00,
2013-02-20 20:57:00,69.0,66.9,29.66,SE,140,13.0,18.0,93,0.00,,---,0.00,VWS V14.00,2013-02-21 02:57:00,
2013-02-20 20:58:00,69.0,66.9,29.66,SE,134,19.0,19.0,93,0.00,,---,0.00,VWS V14.00,2013-02-21 02:58:00,
2013-02-20 20:59:00,69.0,66.9,29.66,SE,146,18.0,20.0,93,0.00,,---,0.00,VWS V14.00,2013-02-21 02:59:00,
2013-02-20 21:00:00,69.0,66.9,29.66,SE,136,15.0,18.0,93,0.00,,---,0.00,VWS V14.00,2013-02-21 03:00:00,
2013-02-20 21:01:00,69.0,66.9,29.66,SE,129,15.0,22.0,93,0.00,,---,0.00,VWS V14.00,2013-02-21 03:01:00,
2013-02-20 21:02:00,68.9,66.8,29.66,ESE,117,14.0,18.0,93,0.00,,---,0.00,VWS V14.00,2013-02-21 03:02:00,
2013-02-20 21:03:00,69.0,66.9,29.66,SE,137,13.0,19.0,93,0.00,,---,0.00,VWS V14.00,2013-02-21 03:03:00,
2013-02-20 21:04:00,68.9,66.8,29.66,SE,138,18.0,18.0,93,0.00,,---,0.00,VWS V14.00,2013-02-21 03:04:00,
2013-02-20 21:05:00,68.9,66.8,29.66,SE,126,18.0,21.0,93,0.00,,---,0.00,VWS V14.00,2013-02-21 03:05:00,
2013-02-20 21:06:00,68.9,66.8,29.66,SE,143,17.0,22.0,93,0.00,,---,0.00,VWS V14.00,2013-02-21 03:06:00,
2013-02-20 21:07:00,68.9,66.8,29.66,SE,131,17.0,19.0,93,0.00,,---,0.00,VWS V14.00,2013-02-21 03:07:00,
2013-02-20 21:08:00,68.9,66.8,29.66,SE,139,14.0,19.0,93,0.00,,---,0.00,VWS V14.00,2013-02-21 03:08:00,
2013-02-20 21:09:00,68.9,66.8,29.66,SE,132,18.0,19.0,93,0.00,,---,0.00,VWS V14.00,2013-02-21 03:09:00,
2013-02-20 21:10:00,68.9,66.8,29.66,SE,125,13.0,19.0,93,0.00,,---,0.00,VWS V14.00,2013-02-21 03:10:00,
2013-02-20 21:11:00,68.9,66.8,29.66,SE,140,17.0,19.0,93,0.00,,---,0.00,VWS V14.00,2013-02-21 03:11:00,
2013-02-20 21:12:00,69.0,66.9,29.66,SE,134,18.0,20.0,93,0.00,,---,0.00,VWS V14.00,2013-02-21 03:12:00,
2013-02-20 21:13:00,68.9,66.8,29.66,SE,134,22.0,22.0,93,0.00,,---,0.00,VWS V14.00,2013-02-21 03:13:00,
2013-02-20 21:14:00,68.9,66.8,29.66,SE,139,20.0,22.0,93,0.00,,---,0.00,VWS V14.00,2013-02-21 03:14:00,
2013-02-20 21:15:00,69.0,66.9,29.66,SE,134,18.0,20.0,93,0.00,,---,0.00,VWS V14.00,2013-02-21 03:15:00,
2013-02-20 21:16:00,69.0,66.9,29.66,SE,128,13.0,22.0,93,0.00,,---,0.00,VWS V14.00,2013-02-21 03:16:00,
2013-02-20 21:17:00,69.0,66.9,29.66,SE,131,15.0,18.0,93,0.00,,---,0.00,VWS V14.00,2013-02-21 03:17:00,
2013-02-20 21:18:00,69.0,66.9,29.66,SE,131,18.0,21.0,93,0.00,,---,0.00,VWS V14.00,2013-02-21 03:18:00,
2013-02-20 21:19:00,69.0,66.9,29.66,SE,132,16.0,21.0,93,0.00,,---,0.00,VWS V14.00,2013-02-21 03:19:00,
2013-02-20 21:20:00,69.0,66.9,29.66,SE,136,17.0,19.0,93,0.00,,---,0.00,VWS V14.00,2013-02-21 03:20:00,
2013-02-20 21:21:00,69.0,66.9,29.66,SE,133,15.0,20.0,93,0.00,,---,0.00,VWS V14.00,2013-02-21 03:21:00,
2013-02-20 21:22:00,69.0,66.9,29.66,SE,134,16.0,19.0,93,0.00,,---,0.00,VWS V14.00,2013-02-21 03:22:00,
2013-02-20 21:23:00,69.0,66.9,29.66,SE,133,15.0,18.0,93,0.00,,---,0.00,VWS V14.00,2013-02-21 03:23:00,
2013-02-20 21:24:00,69.0,66.9,29.66,SE,128,15.0,21.0,93,0.00,,---,0.00,VWS V14.00,2013-02-21 03:24:00,
2013-02-20 21:25:00,69.0,66.9,29.66,ESE,123,17.0,19.0,93,0.00,,---,0.00,VWS V14.00,2013-02-21 03:25:00,
2013-02-20 21:26:00,68.9,66.8,29.67,SE,129,16.0,19.0,93,0.00,,---,0.00,VWS V14.00,2013-02-21 03:26:00,
2013-02-20 21:27:00,69.0,66.9,29.66,SE,144,14.0,17.0,93,0.00,,---,0.00,VWS V14.00,2013-02-21 03:27:00,
2013-02-20 21:28:00,69.0,66.9,29.67,SE,133,16.0,19.0,93,0.00,,---,0.00,VWS V14.00,2013-02-21 03:28:00,
2013-02-20 21:29:00,69.0,66.9,29.66,SE,128,14.0,21.0,93,0.00,,---,0.00,VWS V14.00,2013-02-21 03:29:00,
2013-02-20 21:30:00,69.0,66.9,29.66,SE,144,15.0,19.0,93,0.00,,---,0.00,VWS V14.00,2013-02-21 03:30:00,
2013-02-20 21:31:00,69.0,66.9,29.66,SE,138,20.0,20.0,93,0.00,,---,0.00,VWS V14.00,2013-02-21 03:31:00,
2013-02-20 21:32:00,69.0,66.9,29.66,SE,144,17.0,17.0,93,0.00,,---,0.00,VWS V14.00,2013-02-21 03:32:00,
2013-02-20 21:33:00,69.0,66.9,29.66,SE,134,16.0,21.0,93,0.00,,---,0.00,VWS V14.00,2013-02-21 03:33:00,
2013-02-20 21:34:00,69.0,66.9,29.66,SE,140,13.0,20.0,93,0.00,,---,0.00,VWS V14.00,2013-02-21 03:34:00,
2013-02-20 21:35:00,69.0,66.9,29.66,ESE,122,18.0,26.0,93,0.00,,---,0.00,VWS V14.00,2013-02-21 03:35:00,
2013-02-20 21:36:00,69.1,67.0,29.66,SE,138,17.0,19.0,93,0.00,,---,0.00,VWS V14.00,2013-02-21 03:36:00,
2013-02-20 21:37:00,69.2,67.1,29.66,SE,142,18.0,18.0,93,0.00,,---,0.00,VWS V14.00,2013-02-21 03:37:00,
2013-02-20 21:38:00,69.2,67.1,29.66,SE,136,15.0,21.0,93,0.00,,---,0.00,VWS V14.00,2013-02-21 03:38:00,
2013-02-20 21:39:00,69.2,67.1,29.66,SE,138,14.0,20.0,93,0.00,,---,0.00,VWS V14.00,2013-02-21 03:39:00,
2013-02-20 21:40:00,69.2,67.1,29.66,SE,142,15.0,21.0,93,0.00,,---,0.00,VWS V14.00,2013-02-21 03:40:00,
2013-02-20 21:41:00,69.2,67.1,29.66,SE,128,17.0,17.0,93,0.00,,---,0.00,VWS V14.00,2013-02-21 03:41:00,
2013-02-20 21:42:00,69.2,67.1,29.66,SE,141,13.0,19.0,93,0.00,,---,0.00,VWS V14.00,2013-02-21 03:42:00,
2013-02-20 21:43:00,69.1,67.0,29.66,SE,144,18.0,18.0,93,0.00,,---,0.00,VWS V14.00,2013-02-21 03:43:00,
2013-02-20 21:44:00,69.2,67.1,29.66,SE,136,19.0,22.0,93,0.00,,---,0.00,VWS V14.00,2013-02-21 03:44:00,
2013-02-20 21:45:00,69.2,67.1,29.66,ESE,123,19.0,21.0,93,0.00,,---,0.00,VWS V14.00,2013-02-21 03:45:00,
2013-02-20 21:46:00,69.1,67.0,29.66,SE,142,14.0,19.0,93,0.00,,---,0.00,VWS V14.00,2013-02-21 03:46:00,
2013-02-20 21:47:00,69.2,67.1,29.66,SE,132,15.0,17.0,93,0.00,,---,0.00,VWS V14.00,2013-02-21 03:47:00,
2013-02-20 21:48:00,69.2,67.1,29.66,SE,141,19.0,21.0,93,0.00,,---,0.00,VWS V14.00,2013-02-21 03:48:00,
2013-02-20 21:49:00,69.2,67.1,29.66,SE,130,16.0,21.0,93,0.00,,---,0.00,VWS V14.00,2013-02-21 03:49:00,
2013-02-20 21:50:00,69.2,67.1,29.66,SE,132,18.0,21.0,93,0.00,,---,0.00,VWS V14.00,2013-02-21 03:50:00,
2013-02-20 21:51:00,69.2,67.1,29.66,SSE,147,20.0,21.0,93,0.00,,---,0.00,VWS V14.00,2013-02-21 03:51:00,
2013-02-20 21:52:00,69.2,67.1,29.66,SE,137,17.0,18.0,93,0.00,,---,0.00,VWS V14.00,2013-02-21 03:52:00,
2013-02-20 21:53:00,69.2,67.1,29.66,SE,130,18.0,21.0,93,0.00,,---,0.00,VWS V14.00,2013-02-21 03:53:00,
2013-02-20 21:54:00,69.2,67.1,29.66,SE,132,16.0,21.0,93,0.00,,---,0.00,VWS V14.00,2013-02-21 03:54:00,
2013-02-20 21:55:00,69.2,67.1,29.66,SE,140,15.0,21.0,93,0.00,,---,0.00,VWS V14.00,2013-02-21 03:55:00,
2013-02-20 21:56:00,69.2,67.1,29.66,SE,141,19.0,21.0,93,0.00,,---,0.00,VWS V14.00,2013-02-21 03:56:00,
2013-02-20 21:57:00,69.2,67.1,29.66,SE,132,20.0,20.0,93,0.00,,---,0.00,VWS V14.00,2013-02-21 03:57:00,
2013-02-20 21:58:00,69.2,67.1,29.66,SE,142,20.0,20.0,93,0.00,,---,0.00,VWS V14.00,2013-02-21 03:58:00,
2013-02-20 21:59:00,69.2,67.1,29.66,SE,138,13.0,21.0,93,0.00,,---,0.00,VWS V14.00,2013-02-21 03:59:00,
2013-02-20 22:00:00,69.2,67.1,29.66,SE,128,13.0,20.0,93,0.00,,---,0.00,VWS V14.00,2013-02-21 04:00:00,
2013-02-20 22:01:00,69.2,67.1,29.66,SE,137,22.0,23.0,93,0.00,,---,0.00,VWS V14.00,2013-02-21 04:01:00,
2013-02-20 22:02:00,69.2,67.1,29.66,ESE,123,20.0,20.0,93,0.00,,---,0.00,VWS V14.00,2013-02-21 04:02:00,
2013-02-20 22:03:00,69.2,67.1,29.66,SE,145,14.0,18.0,93,0.00,,---,0.00,VWS V14.00,2013-02-21 04:03:00,
2013-02-20 22:04:00,69.2,67.1,29.66,ESE,119,18.0,20.0,93,0.00,,---,0.00,VWS V14.00,2013-02-21 04:04:00,
2013-02-20 22:05:00,69.2,67.1,29.66,SE,132,16.0,20.0,93,0.00,,---,0.00,VWS V14.00,2013-02-21 04:05:00,
2013-02-20 22:06:00,69.2,67.1,29.66,SE,134,19.0,24.0,93,0.00,,---,0.00,VWS V14.00,2013-02-21 04:06:00,
2013-02-20 22:07:00,69.2,67.1,29.66,SE,143,18.0,20.0,93,0.00,,---,0.00,VWS V14.00,2013-02-21 04:07:00,
2013-02-20 22:08:00,69.3,67.2,29.65,SE,136,15.0,21.0,93,0.00,,---,0.00,VWS V14.00,2013-02-21 04:08:00,
2013-02-20 22:09:00,69.3,67.2,29.66,SE,134,13.0,20.0,93,0.00,,---,0.00,VWS V14.00,2013-02-21 04:09:00,
2013-02-20 22:10:00,69.2,67.1,29.65,ESE,123,18.0,20.0,93,0.00,,---,0.00,VWS V14.00,2013-02-21 04:10:00,
2013-02-20 22:11:00,69.2,67.1,29.66,SE,131,16.0,19.0,93,0.00,,---,0.00,VWS V14.00,2013-02-21 04:11:00,
2013-02-20 22:12:00,69.1,67.0,29.65,ESE,120,17.0,19.0,93,0.00,,---,0.00,VWS V14.00,2013-02-21 04:12:00,
2013-02-20 22:13:00,69.1,67.0,29.66,SE,138,21.0,23.0,93,0.00,,---,0.00,VWS V14.00,2013-02-21 04:13:00,
2013-02-20 22:14:00,69.1,67.0,29.65,SE,138,19.0,21.0,93,0.00,,---,0.00,VWS V14.00,2013-02-21 04:14:00,
2013-02-20 22:15:00,69.1,67.0,29.65,ESE,123,15.0,19.0,93,0.00,,---,0.00,VWS V14.00,2013-02-21 04:15:00,
2013-02-20 22:16:00,69.0,66.9,29.66,SE,146,17.0,20.0,93,0.00,,---,0.00,VWS V14.00,2013-02-21 04:16:00,
2013-02-20 22:17:00,69.0,66.9,29.65,SE,130,15.0,20.0,93,0.00,,---,0.00,VWS V14.00,2013-02-21 04:17:00,
2013-02-20 22:18:00,69.0,66.9,29.65,SE,133,16.0,19.0,93,0.00,,---,0.00,VWS V14.00,2013-02-21 04:18:00,
2013-02-20 22:19:00,69.0,66.9,29.65,SE,140,14.0,18.0,93,0.00,,---,0.00,VWS V14.00,2013-02-21 04:19:00,
2013-02-20 22:20:00,69.0,66.9,29.65,SE,137,19.0,20.0,93,0.00,,---,0.00,VWS V14.00,2013-02-21 04:20:00,
2013-02-20 22:21:00,69.0,66.9,29.65,SE,132,19.0,22.0,93,0.00,,---,0.00,VWS V14.00,2013-02-21 04:21:00,
2013-02-20 22:22:00,69.2,67.1,29.65,SSE,147,15.0,22.0,93,0.00,,---,0.00,VWS V14.00,2013-02-21 04:22:00,
2013-02-20 22:23:00,69.0,66.9,29.65,SE,138,14.0,21.0,93,0.00,,---,0.00,VWS V14.00,2013-02-21 04:23:00,
2013-02-20 22:24:00,69.1,67.0,29.65,SE,140,22.0,26.0,93,0.00,,---,0.00,VWS V14.00,2013-02-21 04:24:00,
2013-02-20 22:25:00,69.2,67.1,29.65,SE,132,18.0,22.0,93,0.00,,---,0.00,VWS V14.00,2013-02-21 04:25:00,
2013-02-20 22:26:00,69.2,67.1,29.65,SE,138,17.0,21.0,93,0.00,,---,0.00,VWS V14.00,2013-02-21 04:26:00,
2013-02-20 22:27:00,69.2,67.1,29.65,SE,132,20.0,20.0,93,0.00,,---,0.00,VWS V14.00,2013-02-21 04:27:00,
2013-02-20 22:28:00,69.2,67.1,29.65,SE,136,18.0,22.0,93,0.00,,---,0.00,VWS V14.00,2013-02-21 04:28:00,
2013-02-20 22:29:00,69.2,67.1,29.65,SE,140,17.0,21.0,93,0.00,,---,0.00,VWS V14.00,2013-02-21 04:29:00,
2013-02-20 22:30:00,69.2,67.1,29.65,SE,134,20.0,22.0,93,0.00,,---,0.00,VWS V14.00,2013-02-21 04:30:00,
2013-02-20 22:31:00,69.2,67.1,29.65,SSE,157,16.0,21.0,93,0.00,,---,0.00,VWS V14.00,2013-02-21 04:31:00,
2013-02-20 22:32:00,69.1,67.0,29.65,SE,142,17.0,20.0,93,0.00,,---,0.00,VWS V14.00,2013-02-21 04:32:00,
2013-02-20 22:33:00,69.2,67.1,29.65,SE,142,19.0,21.0,93,0.00,,---,0.00,VWS V14.00,2013-02-21 04:33:00,
2013-02-20 22:34:00,69.1,67.0,29.65,SSE,148,15.0,22.0,93,0.00,,---,0.00,VWS V14.00,2013-02-21 04:34:00,
2013-02-20 22:35:00,69.1,67.0,29.65,SE,144,15.0,20.0,93,0.00,,---,0.00,VWS V14.00,2013-02-21 04:35:00,
2013-02-20 22:37:00,69.1,67.0,29.64,SE,142,21.0,22.0,93,0.00,,---,0.00,VWS V14.00,2013-02-21 04:37:00,
2013-02-20 22:38:00,69.2,67.1,29.65,SE,139,14.0,22.0,93,0.00,,---,0.00,VWS V14.00,2013-02-21 04:38:00,
2013-02-20 22:39:00,69.1,67.0,29.64,SE,139,17.0,22.0,93,0.00,,---,0.00,VWS V14.00,2013-02-21 04:39:00,
2013-02-20 22:40:00,69.1,67.0,29.64,SE,143,18.0,23.0,93,0.00,,---,0.00,VWS V14.00,2013-02-21 04:40:00,
2013-02-20 22:41:00,69.1,67.0,29.64,SE,143,13.0,21.0,93,0.00,,---,0.00,VWS V14.00,2013-02-21 04:41:00,
2013-02-20 22:42:00,69.2,67.1,29.64,SE,136,14.0,21.0,93,0.00,,---,0.00,VWS V14.00,2013-02-21 04:42:00,
2013-02-20 22:43:00,69.2,67.1,29.64,SE,140,15.0,22.0,93,0.00,,---,0.00,VWS V14.00,2013-02-21 04:43:00,
2013-02-20 22:44:00,69.2,67.1,29.64,SE,132,13.0,21.0,93,0.00,,---,0.00,VWS V14.00,2013-02-21 04:44:00,
2013-02-20 22:45:00,69.2,67.1,29.64,SSE,153,16.0,21.0,93,0.00,,---,0.00,VWS V14.00,2013-02-21 04:45:00,
2013-02-20 22:46:00,69.2,67.1,29.64,SE,128,19.0,21.0,93,0.00,,---,0.00,VWS V14.00,2013-02-21 04:46:00,
2013-02-20 22:47:00,69.2,67.1,29.64,SSE,157,14.0,22.0,93,0.00,,---,0.00,VWS V14.00,2013-02-21 04:47:00,
2013-02-20 22:48:00,69.2,67.1,29.64,SE,135,20.0,21.0,93,0.00,,---,0.00,VWS V14.00,2013-02-21 04:48:00,
2013-02-20 22:49:00,69.2,67.1,29.64,SE,126,21.0,22.0,93,0.00,,---,0.00,VWS V14.00,2013-02-21 04:49:00,
2013-02-20 22:50:00,69.2,67.1,29.64,SE,146,18.0,24.0,93,0.00,,---,0.00,VWS V14.00,2013-02-21 04:50:00,
2013-02-20 22:51:00,69.2,67.1,29.64,SE,140,22.0,23.0,93,0.00,,---,0.00,VWS V14.00,2013-02-21 04:51:00,
2013-02-20 22:52:00,69.2,67.1,29.64,SE,144,18.0,20.0,93,0.00,,---,0.00,VWS V14.00,2013-02-21 04:52:00,
2013-02-20 22:53:00,69.2,67.1,29.64,SSE,147,22.0,25.0,93,0.00,,---,0.00,VWS V14.00,2013-02-21 04:53:00,
2013-02-20 22:54:00,69.2,67.1,29.64,SE,131,18.0,22.0,93,0.00,,---,0.00,VWS V14.00,2013-02-21 04:54:00,
2013-02-20 22:55:00,69.2,67.1,29.64,SSE,148,22.0,22.0,93,0.00,,---,0.00,VWS V14.00,2013-02-21 04:55:00,
2013-02-20 22:56:00,69.2,67.1,29.64,SE,132,17.0,22.0,93,0.00,,---,0.00,VWS V14.00,2013-02-21 04:56:00,
2013-02-20 22:57:00,69.2,67.1,29.64,SE,142,17.0,21.0,93,0.00,,---,0.00,VWS V14.00,2013-02-21 04:57:00,
2013-02-20 22:58:00,69.3,67.2,29.64,SE,144,21.0,21.0,93,0.00,,---,0.00,VWS V14.00,2013-02-21 04:58:00,
2013-02-20 22:59:00,69.2,67.1,29.64,SE,125,17.0,21.0,93,0.00,,---,0.00,VWS V14.00,2013-02-21 04:59:00,
2013-02-20 23:00:00,69.2,67.1,29.64,SE,135,19.0,19.0,93,0.00,,---,0.00,VWS V14.00,2013-02-21 05:00:00,
2013-02-20 23:01:00,69.2,67.1,29.64,SSE,148,19.0,19.0,93,0.00,,---,0.00,VWS V14.00,2013-02-21 05:01:00,
2013-02-20 23:02:00,69.2,67.1,29.64,SSE,156,18.0,20.0,93,0.00,,---,0.00,VWS V14.00,2013-02-21 05:02:00,
2013-02-20 23:03:00,69.2,67.1,29.64,SSE,150,22.0,22.0,93,0.00,,---,0.00,VWS V14.00,2013-02-21 05:03:00,
2013-02-20 23:04:00,69.2,67.1,29.63,SE,138,25.0,25.0,93,0.00,,---,0.00,VWS V14.00,2013-02-21 05:04:00,
2013-02-20 23:05:00,69.3,67.2,29.63,SE,141,21.0,23.0,93,0.00,,---,0.00,VWS V14.00,2013-02-21 05:05:00,
2013-02-20 23:06:00,69.3,67.2,29.63,SE,134,16.0,26.0,93,0.00,,---,0.00,VWS V14.00,2013-02-21 05:06:00,
2013-02-20 23:07:00,69.3,67.2,29.63,SE,143,20.0,24.0,93,0.00,,---,0.00,VWS V14.00,2013-02-21 05:07:00,
2013-02-20 23:08:00,69.3,67.2,29.63,SE,144,24.0,24.0,93,0.00,,---,0.00,VWS V14.00,2013-02-21 05:08:00,
2013-02-20 23:09:00,69.3,67.2,29.64,SE,146,21.0,24.0,93,0.00,,---,0.00,VWS V14.00,2013-02-21 05:09:00,
2013-02-20 23:10:00,69.3,67.2,29.64,SE,138,13.0,23.0,93,0.00,,---,0.00,VWS V14.00,2013-02-21 05:10:00,
2013-02-20 23:11:00,69.3,67.2,29.64,SE,138,19.0,23.0,93,0.00,,---,0.00,VWS V14.00,2013-02-21 05:11:00,
2013-02-20 23:12:00,69.3,67.2,29.64,SE,136,15.0,22.0,93,0.00,,---,0.00,VWS V14.00,2013-02-21 05:12:00,
2013-02-20 23:13:00,69.3,67.2,29.64,SSE,153,15.0,23.0,93,0.00,,---,0.00,VWS V14.00,2013-02-21 05:13:00,
2013-02-20 23:14:00,69.3,67.2,29.63,SE,145,15.0,19.0,93,0.00,,---,0.00,VWS V14.00,2013-02-21 05:14:00,
2013-02-20 23:15:00,69.4,67.3,29.63,SE,144,15.0,20.0,93,0.00,,---,0.00,VWS V14.00,2013-02-21 05:15:00,
2013-02-20 23:16:00,69.3,67.2,29.63,SE,132,17.0,22.0,93,0.00,,---,0.00,VWS V14.00,2013-02-21 05:16:00,
2013-02-20 23:17:00,69.4,67.3,29.63,SE,129,20.0,22.0,93,0.00,,---,0.00,VWS V14.00,2013-02-21 05:17:00,
2013-02-20 23:18:00,69.4,67.3,29.63,SE,140,20.0,20.0,93,0.00,,---,0.00,VWS V14.00,2013-02-21 05:18:00,
2013-02-20 23:19:00,69.3,67.2,29.63,SE,143,22.0,22.0,93,0.00,,---,0.00,VWS V14.00,2013-02-21 05:19:00,
2013-02-20 23:20:00,69.3,67.2,29.63,SE,138,13.0,22.0,93,0.00,,---,0.00,VWS V14.00,2013-02-21 05:20:00,
2013-02-20 23:21:00,69.3,67.2,29.63,SSE,151,13.0,20.0,93,0.00,,---,0.00,VWS V14.00,2013-02-21 05:21:00,
2013-02-20 23:22:00,69.3,67.2,29.63,SE,142,15.0,22.0,93,0.00,,---,0.00,VWS V14.00,2013-02-21 05:22:00,
2013-02-20 23:23:00,69.3,67.2,29.63,SE,146,18.0,22.0,93,0.00,,---,0.00,VWS V14.00,2013-02-21 05:23:00,
2013-02-20 23:24:00,69.3,67.2,29.63,SE,146,14.0,20.0,93,0.00,,---,0.00,VWS V14.00,2013-02-21 05:24:00,
2013-02-20 23:25:00,69.3,67.2,29.63,SSE,153,16.0,22.0,93,0.00,,---,0.00,VWS V14.00,2013-02-21 05:25:00,
2013-02-20 23:26:00,69.3,67.2,29.63,SSE,148,13.0,20.0,93,0.00,,---,0.00,VWS V14.00,2013-02-21 05:26:00,
2013-02-20 23:27:00,69.3,67.2,29.63,SSE,148,18.0,20.0,93,0.00,,---,0.00,VWS V14.00,2013-02-21 05:27:00,
2013-02-20 23:28:00,69.4,67.3,29.63,SSE,150,14.0,22.0,93,0.00,,---,0.00,VWS V14.00,2013-02-21 05:28:00,
2013-02-20 23:29:00,69.4,67.3,29.63,SE,146,20.0,20.0,93,0.00,,---,0.00,VWS V14.00,2013-02-21 05:29:00,
2013-02-20 23:30:00,69.4,67.3,29.62,SSE,155,17.0,17.0,93,0.00,,---,0.00,VWS V14.00,2013-02-21 05:30:00,
2013-02-20 23:31:00,69.4,67.3,29.62,SE,141,18.0,19.0,93,0.00,,---,0.00,VWS V14.00,2013-02-21 05:31:00,
2013-02-20 23:32:00,69.4,67.3,29.62,SSE,148,14.0,20.0,93,0.00,,---,0.00,VWS V14.00,2013-02-21 05:32:00,
2013-02-20 23:33:00,69.4,67.3,29.62,SSE,148,14.0,19.0,93,0.00,,---,0.00,VWS V14.00,2013-02-21 05:33:00,
2013-02-20 23:34:00,69.5,67.4,29.63,SE,145,15.0,19.0,93,0.00,,---,0.00,VWS V14.00,2013-02-21 05:34:00,
2013-02-20 23:35:00,69.5,67.4,29.63,SSE,148,17.0,18.0,93,0.00,,---,0.00,VWS V14.00,2013-02-21 05:35:00,
2013-02-20 23:37:00,69.5,67.4,29.63,SSE,150,19.0,21.0,93,0.00,,---,0.00,VWS V14.00,2013-02-21 05:37:00,
2013-02-20 23:38:00,69.5,67.4,29.63,SSE,159,19.0,21.0,93,0.00,,---,0.00,VWS V14.00,2013-02-21 05:38:00,
2013-02-20 23:39:00,69.5,67.4,29.63,SSE,150,19.0,19.0,93,0.00,,---,0.00,VWS V14.00,2013-02-21 05:39:00,
2013-02-20 23:40:00,69.7,67.6,29.63,SSE,153,23.0,24.0,93,0.00,,---,0.00,VWS V14.00,2013-02-21 05:40:00,
2013-02-20 23:41:00,69.6,67.5,29.63,SE,144,18.0,21.0,93,0.00,,---,0.00,VWS V14.00,2013-02-21 05:41:00,
2013-02-20 23:42:00,69.7,67.6,29.63,SSE,150,23.0,24.0,93,0.00,,---,0.00,VWS V14.00,2013-02-21 05:42:00,
2013-02-20 23:43:00,69.8,67.7,29.63,SSE,150,17.0,24.0,93,0.00,,---,0.00,VWS V14.00,2013-02-21 05:43:00,
2013-02-20 23:45:00,70.0,67.9,29.63,SSE,156,15.0,22.0,93,0.00,,---,0.00,VWS V14.00,2013-02-21 05:45:00,
2013-02-20 23:46:00,69.9,67.8,29.62,SSE,161,19.0,21.0,93,0.00,,---,0.00,VWS V14.00,2013-02-21 05:46:00,
2013-02-20 23:47:00,69.9,67.8,29.63,SSE,150,15.0,22.0,93,0.00,,---,0.00,VWS V14.00,2013-02-21 05:47:00,
2013-02-20 23:48:00,70.0,67.9,29.63,SSE,148,17.0,22.0,93,0.00,,---,0.00,VWS V14.00,2013-02-21 05:48:00,
2013-02-20 23:49:00,70.0,67.9,29.63,SE,136,17.0,21.0,93,0.00,,---,0.00,VWS V14.00,2013-02-21 05:49:00,
2013-02-20 23:50:00,70.1,68.0,29.63,SE,142,17.0,17.0,93,0.00,,---,0.00,VWS V14.00,2013-02-21 05:50:00,
2013-02-20 23:52:00,70.1,68.0,29.63,SSE,152,16.0,21.0,93,0.00,,---,0.00,VWS V14.00,2013-02-21 05:52:00,
2013-02-20 23:53:00,70.1,68.0,29.63,SSE,152,15.0,18.0,93,0.00,,---,0.00,VWS V14.00,2013-02-21 05:53:00,
2013-02-20 23:55:00,70.1,68.0,29.63,SSE,150,18.0,18.0,93,0.00,,---,0.00,VWS V14.00,2013-02-21 05:55:00,
2013-02-20 23:56:00,70.1,68.0,29.63,SSE,152,16.0,21.0,93,0.00,,---,0.00,VWS V14.00,2013-02-21 05:56:00,
2013-02-20 23:57:00,70.1,68.0,29.63,SSE,152,16.0,18.0,93,0.00,,---,0.00,VWS V14.00,2013-02-21 05:57:00,
2013-02-20 23:58:00,70.1,68.0,29.63,SSE,159,15.0,20.0,93,0.00,,---,0.00,VWS V14.00,2013-02-21 05:58:00,
2013-02-20 23:59:00,70.2,68.1,29.63,SSE,153,17.0,21.0,93,0.00,,---,0.00,VWS V14.00,2013-02-21 05:59:00,